<?xml version="1.0" encoding="UTF-8" standalone="no" ?>
<gpx xmlns="http://www.topografix.com/GPX/1/1" creator="www.cicloide.com" version="1.1" xmlns:xsi="http://www.w3.org/2001/XMLSchema-instance" xsi:schemaLocation="http://www.topografix.com/GPX/1/1 http://www.topografix.com/GPX/1/1/gpx.xsd">
  <trk>
    <name>www.cicloide.com 13065</name>
    <desc>www.cicloide.com 13065</desc>
    <trkseg>
      <trkpt lat="41.440367000" lon="2.161268000">
        <ele>106.00</ele>
        <time>2013-04-14T08:05:31Z</time>
      </trkpt>
      <trkpt lat="41.440338000" lon="2.161036000">
        <ele>105.50</ele>
        <time>2013-04-14T08:05:42Z</time>
      </trkpt>
      <trkpt lat="41.440440000" lon="2.160863000">
        <ele>107.00</ele>
        <time>2013-04-14T08:05:52Z</time>
      </trkpt>
      <trkpt lat="41.440548000" lon="2.160650000">
        <ele>108.30</ele>
        <time>2013-04-14T08:06:01Z</time>
      </trkpt>
      <trkpt lat="41.440652000" lon="2.160453000">
        <ele>109.50</ele>
        <time>2013-04-14T08:06:11Z</time>
      </trkpt>
      <trkpt lat="41.440762000" lon="2.160242000">
        <ele>110.70</ele>
        <time>2013-04-14T08:06:22Z</time>
      </trkpt>
      <trkpt lat="41.440856000" lon="2.160019000">
        <ele>112.00</ele>
        <time>2013-04-14T08:06:33Z</time>
      </trkpt>
      <trkpt lat="41.440956000" lon="2.159796000">
        <ele>113.30</ele>
        <time>2013-04-14T08:06:44Z</time>
      </trkpt>
      <trkpt lat="41.441064000" lon="2.159580000">
        <ele>114.60</ele>
        <time>2013-04-14T08:06:55Z</time>
      </trkpt>
      <trkpt lat="41.441185000" lon="2.159402000">
        <ele>115.70</ele>
        <time>2013-04-14T08:07:07Z</time>
      </trkpt>
      <trkpt lat="41.441383000" lon="2.159451000">
        <ele>116.60</ele>
        <time>2013-04-14T08:07:17Z</time>
      </trkpt>
      <trkpt lat="41.441555000" lon="2.159514000">
        <ele>117.10</ele>
        <time>2013-04-14T08:07:27Z</time>
      </trkpt>
      <trkpt lat="41.441734000" lon="2.159560000">
        <ele>117.70</ele>
        <time>2013-04-14T08:07:37Z</time>
      </trkpt>
      <trkpt lat="41.441933000" lon="2.159628000">
        <ele>118.20</ele>
        <time>2013-04-14T08:07:47Z</time>
      </trkpt>
      <trkpt lat="41.442117000" lon="2.159720000">
        <ele>118.30</ele>
        <time>2013-04-14T08:07:56Z</time>
      </trkpt>
      <trkpt lat="41.442288000" lon="2.159850000">
        <ele>118.90</ele>
        <time>2013-04-14T08:08:05Z</time>
      </trkpt>
      <trkpt lat="41.442394000" lon="2.160048000">
        <ele>119.30</ele>
        <time>2013-04-14T08:08:14Z</time>
      </trkpt>
      <trkpt lat="41.442430000" lon="2.160302000">
        <ele>120.00</ele>
        <time>2013-04-14T08:08:24Z</time>
      </trkpt>
      <trkpt lat="41.442393000" lon="2.160542000">
        <ele>120.70</ele>
        <time>2013-04-14T08:08:33Z</time>
      </trkpt>
      <trkpt lat="41.442351000" lon="2.160804000">
        <ele>121.60</ele>
        <time>2013-04-14T08:08:42Z</time>
      </trkpt>
      <trkpt lat="41.442335000" lon="2.161052000">
        <ele>122.30</ele>
        <time>2013-04-14T08:08:51Z</time>
      </trkpt>
      <trkpt lat="41.442335000" lon="2.161291000">
        <ele>122.90</ele>
        <time>2013-04-14T08:08:59Z</time>
      </trkpt>
      <trkpt lat="41.442378000" lon="2.161536000">
        <ele>123.50</ele>
        <time>2013-04-14T08:09:07Z</time>
      </trkpt>
      <trkpt lat="41.442476000" lon="2.161772000">
        <ele>124.00</ele>
        <time>2013-04-14T08:09:16Z</time>
      </trkpt>
      <trkpt lat="41.442600000" lon="2.161939000">
        <ele>124.70</ele>
        <time>2013-04-14T08:09:25Z</time>
      </trkpt>
      <trkpt lat="41.442784000" lon="2.162038000">
        <ele>125.40</ele>
        <time>2013-04-14T08:09:34Z</time>
      </trkpt>
      <trkpt lat="41.442978000" lon="2.162054000">
        <ele>126.20</ele>
        <time>2013-04-14T08:09:43Z</time>
      </trkpt>
      <trkpt lat="41.443154000" lon="2.161987000">
        <ele>127.40</ele>
        <time>2013-04-14T08:09:52Z</time>
      </trkpt>
      <trkpt lat="41.443344000" lon="2.161899000">
        <ele>128.30</ele>
        <time>2013-04-14T08:10:01Z</time>
      </trkpt>
      <trkpt lat="41.443523000" lon="2.161798000">
        <ele>129.00</ele>
        <time>2013-04-14T08:10:10Z</time>
      </trkpt>
      <trkpt lat="41.443710000" lon="2.161895000">
        <ele>129.60</ele>
        <time>2013-04-14T08:10:19Z</time>
      </trkpt>
      <trkpt lat="41.443839000" lon="2.162067000">
        <ele>130.00</ele>
        <time>2013-04-14T08:10:27Z</time>
      </trkpt>
      <trkpt lat="41.443858000" lon="2.162311000">
        <ele>130.90</ele>
        <time>2013-04-14T08:10:36Z</time>
      </trkpt>
      <trkpt lat="41.443799000" lon="2.162569000">
        <ele>132.10</ele>
        <time>2013-04-14T08:10:45Z</time>
      </trkpt>
      <trkpt lat="41.443771000" lon="2.162810000">
        <ele>133.60</ele>
        <time>2013-04-14T08:10:54Z</time>
      </trkpt>
      <trkpt lat="41.443768000" lon="2.163062000">
        <ele>135.30</ele>
        <time>2013-04-14T08:11:03Z</time>
      </trkpt>
      <trkpt lat="41.443844000" lon="2.163314000">
        <ele>136.90</ele>
        <time>2013-04-14T08:11:12Z</time>
      </trkpt>
      <trkpt lat="41.443964000" lon="2.163497000">
        <ele>138.50</ele>
        <time>2013-04-14T08:11:20Z</time>
      </trkpt>
      <trkpt lat="41.444130000" lon="2.163618000">
        <ele>139.50</ele>
        <time>2013-04-14T08:11:28Z</time>
      </trkpt>
      <trkpt lat="41.444311000" lon="2.163612000">
        <ele>139.60</ele>
        <time>2013-04-14T08:11:36Z</time>
      </trkpt>
      <trkpt lat="41.444501000" lon="2.163554000">
        <ele>141.00</ele>
        <time>2013-04-14T08:11:45Z</time>
      </trkpt>
      <trkpt lat="41.444670000" lon="2.163592000">
        <ele>141.20</ele>
        <time>2013-04-14T08:11:53Z</time>
      </trkpt>
      <trkpt lat="41.444780000" lon="2.163789000">
        <ele>142.40</ele>
        <time>2013-04-14T08:12:01Z</time>
      </trkpt>
      <trkpt lat="41.444752000" lon="2.164055000">
        <ele>144.40</ele>
        <time>2013-04-14T08:12:10Z</time>
      </trkpt>
      <trkpt lat="41.444708000" lon="2.164319000">
        <ele>145.50</ele>
        <time>2013-04-14T08:12:19Z</time>
      </trkpt>
      <trkpt lat="41.444716000" lon="2.164569000">
        <ele>146.70</ele>
        <time>2013-04-14T08:12:27Z</time>
      </trkpt>
      <trkpt lat="41.444809000" lon="2.164779000">
        <ele>147.10</ele>
        <time>2013-04-14T08:12:35Z</time>
      </trkpt>
      <trkpt lat="41.444960000" lon="2.164942000">
        <ele>147.90</ele>
        <time>2013-04-14T08:12:43Z</time>
      </trkpt>
      <trkpt lat="41.445148000" lon="2.165038000">
        <ele>148.70</ele>
        <time>2013-04-14T08:12:51Z</time>
      </trkpt>
      <trkpt lat="41.445334000" lon="2.165081000">
        <ele>149.90</ele>
        <time>2013-04-14T08:12:59Z</time>
      </trkpt>
      <trkpt lat="41.445525000" lon="2.165038000">
        <ele>150.80</ele>
        <time>2013-04-14T08:13:07Z</time>
      </trkpt>
      <trkpt lat="41.445704000" lon="2.164961000">
        <ele>152.20</ele>
        <time>2013-04-14T08:13:15Z</time>
      </trkpt>
      <trkpt lat="41.445873000" lon="2.165029000">
        <ele>153.50</ele>
        <time>2013-04-14T08:13:24Z</time>
      </trkpt>
      <trkpt lat="41.445940000" lon="2.165261000">
        <ele>155.80</ele>
        <time>2013-04-14T08:13:33Z</time>
      </trkpt>
      <trkpt lat="41.445972000" lon="2.165499000">
        <ele>157.10</ele>
        <time>2013-04-14T08:13:42Z</time>
      </trkpt>
      <trkpt lat="41.445990000" lon="2.165757000">
        <ele>159.20</ele>
        <time>2013-04-14T08:13:51Z</time>
      </trkpt>
      <trkpt lat="41.446044000" lon="2.165983000">
        <ele>160.70</ele>
        <time>2013-04-14T08:13:59Z</time>
      </trkpt>
      <trkpt lat="41.446208000" lon="2.166155000">
        <ele>161.60</ele>
        <time>2013-04-14T08:14:08Z</time>
      </trkpt>
      <trkpt lat="41.446390000" lon="2.166282000">
        <ele>163.40</ele>
        <time>2013-04-14T08:14:17Z</time>
      </trkpt>
      <trkpt lat="41.446587000" lon="2.166367000">
        <ele>164.70</ele>
        <time>2013-04-14T08:14:26Z</time>
      </trkpt>
      <trkpt lat="41.446767000" lon="2.166364000">
        <ele>166.80</ele>
        <time>2013-04-14T08:14:34Z</time>
      </trkpt>
      <trkpt lat="41.446951000" lon="2.166312000">
        <ele>168.20</ele>
        <time>2013-04-14T08:14:42Z</time>
      </trkpt>
      <trkpt lat="41.447141000" lon="2.166341000">
        <ele>170.30</ele>
        <time>2013-04-14T08:14:51Z</time>
      </trkpt>
      <trkpt lat="41.447277000" lon="2.166501000">
        <ele>172.40</ele>
        <time>2013-04-14T08:15:00Z</time>
      </trkpt>
      <trkpt lat="41.447358000" lon="2.166704000">
        <ele>174.50</ele>
        <time>2013-04-14T08:15:08Z</time>
      </trkpt>
      <trkpt lat="41.447388000" lon="2.166943000">
        <ele>176.20</ele>
        <time>2013-04-14T08:15:17Z</time>
      </trkpt>
      <trkpt lat="41.447397000" lon="2.167201000">
        <ele>178.30</ele>
        <time>2013-04-14T08:15:26Z</time>
      </trkpt>
      <trkpt lat="41.447411000" lon="2.167445000">
        <ele>179.60</ele>
        <time>2013-04-14T08:15:34Z</time>
      </trkpt>
      <trkpt lat="41.447446000" lon="2.167712000">
        <ele>180.90</ele>
        <time>2013-04-14T08:15:42Z</time>
      </trkpt>
      <trkpt lat="41.447561000" lon="2.167904000">
        <ele>181.30</ele>
        <time>2013-04-14T08:15:49Z</time>
      </trkpt>
      <trkpt lat="41.447750000" lon="2.167972000">
        <ele>181.10</ele>
        <time>2013-04-14T08:15:56Z</time>
      </trkpt>
      <trkpt lat="41.447935000" lon="2.167951000">
        <ele>181.70</ele>
        <time>2013-04-14T08:16:03Z</time>
      </trkpt>
      <trkpt lat="41.448113000" lon="2.167894000">
        <ele>182.30</ele>
        <time>2013-04-14T08:16:10Z</time>
      </trkpt>
      <trkpt lat="41.448302000" lon="2.167837000">
        <ele>183.00</ele>
        <time>2013-04-14T08:16:17Z</time>
      </trkpt>
      <trkpt lat="41.448495000" lon="2.167786000">
        <ele>183.50</ele>
        <time>2013-04-14T08:16:24Z</time>
      </trkpt>
      <trkpt lat="41.448680000" lon="2.167716000">
        <ele>184.40</ele>
        <time>2013-04-14T08:16:31Z</time>
      </trkpt>
      <trkpt lat="41.448864000" lon="2.167620000">
        <ele>183.80</ele>
        <time>2013-04-14T08:16:38Z</time>
      </trkpt>
      <trkpt lat="41.449051000" lon="2.167552000">
        <ele>185.00</ele>
        <time>2013-04-14T08:16:45Z</time>
      </trkpt>
      <trkpt lat="41.449241000" lon="2.167631000">
        <ele>186.00</ele>
        <time>2013-04-14T08:16:53Z</time>
      </trkpt>
      <trkpt lat="41.449365000" lon="2.167816000">
        <ele>186.90</ele>
        <time>2013-04-14T08:17:01Z</time>
      </trkpt>
      <trkpt lat="41.449432000" lon="2.168029000">
        <ele>188.00</ele>
        <time>2013-04-14T08:17:08Z</time>
      </trkpt>
      <trkpt lat="41.449497000" lon="2.168268000">
        <ele>188.50</ele>
        <time>2013-04-14T08:17:15Z</time>
      </trkpt>
      <trkpt lat="41.449504000" lon="2.168533000">
        <ele>189.40</ele>
        <time>2013-04-14T08:17:22Z</time>
      </trkpt>
      <trkpt lat="41.449433000" lon="2.168778000">
        <ele>190.40</ele>
        <time>2013-04-14T08:17:29Z</time>
      </trkpt>
      <trkpt lat="41.449260000" lon="2.168929000">
        <ele>191.10</ele>
        <time>2013-04-14T08:17:36Z</time>
      </trkpt>
      <trkpt lat="41.449093000" lon="2.169018000">
        <ele>191.70</ele>
        <time>2013-04-14T08:17:42Z</time>
      </trkpt>
      <trkpt lat="41.448915000" lon="2.169154000">
        <ele>192.90</ele>
        <time>2013-04-14T08:17:49Z</time>
      </trkpt>
      <trkpt lat="41.448762000" lon="2.169329000">
        <ele>193.70</ele>
        <time>2013-04-14T08:17:56Z</time>
      </trkpt>
      <trkpt lat="41.448624000" lon="2.169752000">
        <ele>194.20</ele>
        <time>2013-04-14T08:18:08Z</time>
      </trkpt>
      <trkpt lat="41.448665000" lon="2.170041000">
        <ele>195.10</ele>
        <time>2013-04-14T08:18:15Z</time>
      </trkpt>
      <trkpt lat="41.448760000" lon="2.170261000">
        <ele>195.30</ele>
        <time>2013-04-14T08:18:21Z</time>
      </trkpt>
      <trkpt lat="41.448888000" lon="2.170450000">
        <ele>195.90</ele>
        <time>2013-04-14T08:18:27Z</time>
      </trkpt>
      <trkpt lat="41.449000000" lon="2.170672000">
        <ele>196.50</ele>
        <time>2013-04-14T08:18:34Z</time>
      </trkpt>
      <trkpt lat="41.449115000" lon="2.170908000">
        <ele>197.10</ele>
        <time>2013-04-14T08:18:41Z</time>
      </trkpt>
      <trkpt lat="41.449258000" lon="2.171128000">
        <ele>197.70</ele>
        <time>2013-04-14T08:18:48Z</time>
      </trkpt>
      <trkpt lat="41.449387000" lon="2.171291000">
        <ele>197.50</ele>
        <time>2013-04-14T08:18:54Z</time>
      </trkpt>
      <trkpt lat="41.449494000" lon="2.171488000">
        <ele>198.80</ele>
        <time>2013-04-14T08:19:00Z</time>
      </trkpt>
      <trkpt lat="41.449503000" lon="2.171720000">
        <ele>199.60</ele>
        <time>2013-04-14T08:19:06Z</time>
      </trkpt>
      <trkpt lat="41.449414000" lon="2.171940000">
        <ele>200.70</ele>
        <time>2013-04-14T08:19:13Z</time>
      </trkpt>
      <trkpt lat="41.449305000" lon="2.172143000">
        <ele>201.40</ele>
        <time>2013-04-14T08:19:20Z</time>
      </trkpt>
      <trkpt lat="41.449217000" lon="2.172373000">
        <ele>202.20</ele>
        <time>2013-04-14T08:19:27Z</time>
      </trkpt>
      <trkpt lat="41.449290000" lon="2.172610000">
        <ele>203.00</ele>
        <time>2013-04-14T08:19:34Z</time>
      </trkpt>
      <trkpt lat="41.449427000" lon="2.172794000">
        <ele>203.90</ele>
        <time>2013-04-14T08:19:41Z</time>
      </trkpt>
      <trkpt lat="41.449553000" lon="2.172993000">
        <ele>204.50</ele>
        <time>2013-04-14T08:19:48Z</time>
      </trkpt>
      <trkpt lat="41.449640000" lon="2.173224000">
        <ele>204.80</ele>
        <time>2013-04-14T08:19:55Z</time>
      </trkpt>
      <trkpt lat="41.449772000" lon="2.173419000">
        <ele>205.00</ele>
        <time>2013-04-14T08:20:01Z</time>
      </trkpt>
      <trkpt lat="41.449930000" lon="2.173563000">
        <ele>204.70</ele>
        <time>2013-04-14T08:20:06Z</time>
      </trkpt>
      <trkpt lat="41.450078000" lon="2.173731000">
        <ele>204.80</ele>
        <time>2013-04-14T08:20:11Z</time>
      </trkpt>
      <trkpt lat="41.450215000" lon="2.173926000">
        <ele>204.70</ele>
        <time>2013-04-14T08:20:17Z</time>
      </trkpt>
      <trkpt lat="41.450346000" lon="2.174132000">
        <ele>204.60</ele>
        <time>2013-04-14T08:20:24Z</time>
      </trkpt>
      <trkpt lat="41.450458000" lon="2.174342000">
        <ele>204.80</ele>
        <time>2013-04-14T08:20:31Z</time>
      </trkpt>
      <trkpt lat="41.450524000" lon="2.174561000">
        <ele>204.60</ele>
        <time>2013-04-14T08:20:38Z</time>
      </trkpt>
      <trkpt lat="41.450667000" lon="2.174745000">
        <ele>203.90</ele>
        <time>2013-04-14T08:20:45Z</time>
      </trkpt>
      <trkpt lat="41.450823000" lon="2.174636000">
        <ele>204.00</ele>
        <time>2013-04-14T08:20:51Z</time>
      </trkpt>
      <trkpt lat="41.450860000" lon="2.174387000">
        <ele>204.30</ele>
        <time>2013-04-14T08:20:57Z</time>
      </trkpt>
      <trkpt lat="41.450811000" lon="2.174107000">
        <ele>204.50</ele>
        <time>2013-04-14T08:21:03Z</time>
      </trkpt>
      <trkpt lat="41.450757000" lon="2.173840000">
        <ele>204.60</ele>
        <time>2013-04-14T08:21:09Z</time>
      </trkpt>
      <trkpt lat="41.450727000" lon="2.173565000">
        <ele>205.60</ele>
        <time>2013-04-14T08:21:16Z</time>
      </trkpt>
      <trkpt lat="41.450738000" lon="2.173291000">
        <ele>206.70</ele>
        <time>2013-04-14T08:21:24Z</time>
      </trkpt>
      <trkpt lat="41.450815000" lon="2.173052000">
        <ele>207.90</ele>
        <time>2013-04-14T08:21:31Z</time>
      </trkpt>
      <trkpt lat="41.450965000" lon="2.172876000">
        <ele>208.20</ele>
        <time>2013-04-14T08:21:38Z</time>
      </trkpt>
      <trkpt lat="41.451135000" lon="2.172719000">
        <ele>208.60</ele>
        <time>2013-04-14T08:21:45Z</time>
      </trkpt>
      <trkpt lat="41.451274000" lon="2.172547000">
        <ele>208.80</ele>
        <time>2013-04-14T08:21:51Z</time>
      </trkpt>
      <trkpt lat="41.451368000" lon="2.172331000">
        <ele>208.90</ele>
        <time>2013-04-14T08:21:57Z</time>
      </trkpt>
      <trkpt lat="41.451491000" lon="2.172118000">
        <ele>209.60</ele>
        <time>2013-04-14T08:22:04Z</time>
      </trkpt>
      <trkpt lat="41.451627000" lon="2.171927000">
        <ele>210.50</ele>
        <time>2013-04-14T08:22:11Z</time>
      </trkpt>
      <trkpt lat="41.451825000" lon="2.171874000">
        <ele>211.80</ele>
        <time>2013-04-14T08:22:18Z</time>
      </trkpt>
      <trkpt lat="41.452020000" lon="2.171914000">
        <ele>212.00</ele>
        <time>2013-04-14T08:22:25Z</time>
      </trkpt>
      <trkpt lat="41.452215000" lon="2.171965000">
        <ele>212.80</ele>
        <time>2013-04-14T08:22:32Z</time>
      </trkpt>
      <trkpt lat="41.452399000" lon="2.171923000">
        <ele>213.30</ele>
        <time>2013-04-14T08:22:39Z</time>
      </trkpt>
      <trkpt lat="41.452493000" lon="2.171713000">
        <ele>214.30</ele>
        <time>2013-04-14T08:22:46Z</time>
      </trkpt>
      <trkpt lat="41.452571000" lon="2.171504000">
        <ele>215.70</ele>
        <time>2013-04-14T08:22:53Z</time>
      </trkpt>
      <trkpt lat="41.452678000" lon="2.171288000">
        <ele>216.80</ele>
        <time>2013-04-14T08:23:01Z</time>
      </trkpt>
      <trkpt lat="41.452861000" lon="2.171167000">
        <ele>217.90</ele>
        <time>2013-04-14T08:23:09Z</time>
      </trkpt>
      <trkpt lat="41.453051000" lon="2.171145000">
        <ele>218.50</ele>
        <time>2013-04-14T08:23:16Z</time>
      </trkpt>
      <trkpt lat="41.453225000" lon="2.171065000">
        <ele>218.80</ele>
        <time>2013-04-14T08:23:23Z</time>
      </trkpt>
      <trkpt lat="41.453311000" lon="2.170856000">
        <ele>218.60</ele>
        <time>2013-04-14T08:23:30Z</time>
      </trkpt>
      <trkpt lat="41.453231000" lon="2.170587000">
        <ele>219.50</ele>
        <time>2013-04-14T08:23:38Z</time>
      </trkpt>
      <trkpt lat="41.453099000" lon="2.170385000">
        <ele>220.80</ele>
        <time>2013-04-14T08:23:45Z</time>
      </trkpt>
      <trkpt lat="41.452986000" lon="2.170172000">
        <ele>221.00</ele>
        <time>2013-04-14T08:23:52Z</time>
      </trkpt>
      <trkpt lat="41.452869000" lon="2.169979000">
        <ele>221.60</ele>
        <time>2013-04-14T08:23:59Z</time>
      </trkpt>
      <trkpt lat="41.452739000" lon="2.169817000">
        <ele>222.50</ele>
        <time>2013-04-14T08:24:06Z</time>
      </trkpt>
      <trkpt lat="41.452651000" lon="2.169591000">
        <ele>223.50</ele>
        <time>2013-04-14T08:24:13Z</time>
      </trkpt>
      <trkpt lat="41.452601000" lon="2.169353000">
        <ele>224.80</ele>
        <time>2013-04-14T08:24:20Z</time>
      </trkpt>
      <trkpt lat="41.452486000" lon="2.169140000">
        <ele>225.20</ele>
        <time>2013-04-14T08:24:27Z</time>
      </trkpt>
      <trkpt lat="41.452378000" lon="2.168936000">
        <ele>225.90</ele>
        <time>2013-04-14T08:24:34Z</time>
      </trkpt>
      <trkpt lat="41.452403000" lon="2.168692000">
        <ele>226.90</ele>
        <time>2013-04-14T08:24:42Z</time>
      </trkpt>
      <trkpt lat="41.452431000" lon="2.168434000">
        <ele>227.60</ele>
        <time>2013-04-14T08:24:50Z</time>
      </trkpt>
      <trkpt lat="41.452460000" lon="2.168183000">
        <ele>228.50</ele>
        <time>2013-04-14T08:24:57Z</time>
      </trkpt>
      <trkpt lat="41.452461000" lon="2.167931000">
        <ele>229.20</ele>
        <time>2013-04-14T08:25:04Z</time>
      </trkpt>
      <trkpt lat="41.452392000" lon="2.167679000">
        <ele>230.10</ele>
        <time>2013-04-14T08:25:11Z</time>
      </trkpt>
      <trkpt lat="41.452383000" lon="2.167399000">
        <ele>231.00</ele>
        <time>2013-04-14T08:25:18Z</time>
      </trkpt>
      <trkpt lat="41.452445000" lon="2.167146000">
        <ele>232.00</ele>
        <time>2013-04-14T08:25:25Z</time>
      </trkpt>
      <trkpt lat="41.452541000" lon="2.166910000">
        <ele>232.50</ele>
        <time>2013-04-14T08:25:32Z</time>
      </trkpt>
      <trkpt lat="41.452627000" lon="2.166680000">
        <ele>233.50</ele>
        <time>2013-04-14T08:25:39Z</time>
      </trkpt>
      <trkpt lat="41.452705000" lon="2.166441000">
        <ele>234.20</ele>
        <time>2013-04-14T08:25:46Z</time>
      </trkpt>
      <trkpt lat="41.452844000" lon="2.166252000">
        <ele>235.10</ele>
        <time>2013-04-14T08:25:53Z</time>
      </trkpt>
      <trkpt lat="41.453055000" lon="2.166143000">
        <ele>235.80</ele>
        <time>2013-04-14T08:26:00Z</time>
      </trkpt>
      <trkpt lat="41.453224000" lon="2.166048000">
        <ele>236.30</ele>
        <time>2013-04-14T08:26:06Z</time>
      </trkpt>
      <trkpt lat="41.453351000" lon="2.165895000">
        <ele>237.30</ele>
        <time>2013-04-14T08:26:12Z</time>
      </trkpt>
      <trkpt lat="41.453469000" lon="2.165708000">
        <ele>238.30</ele>
        <time>2013-04-14T08:26:19Z</time>
      </trkpt>
      <trkpt lat="41.453551000" lon="2.165461000">
        <ele>239.30</ele>
        <time>2013-04-14T08:26:26Z</time>
      </trkpt>
      <trkpt lat="41.453631000" lon="2.165211000">
        <ele>239.70</ele>
        <time>2013-04-14T08:26:33Z</time>
      </trkpt>
      <trkpt lat="41.453768000" lon="2.165067000">
        <ele>240.10</ele>
        <time>2013-04-14T08:26:40Z</time>
      </trkpt>
      <trkpt lat="41.453964000" lon="2.165150000">
        <ele>239.90</ele>
        <time>2013-04-14T08:26:47Z</time>
      </trkpt>
      <trkpt lat="41.454167000" lon="2.165226000">
        <ele>239.70</ele>
        <time>2013-04-14T08:26:53Z</time>
      </trkpt>
      <trkpt lat="41.454375000" lon="2.165209000">
        <ele>239.60</ele>
        <time>2013-04-14T08:26:59Z</time>
      </trkpt>
      <trkpt lat="41.454577000" lon="2.165184000">
        <ele>239.20</ele>
        <time>2013-04-14T08:27:05Z</time>
      </trkpt>
      <trkpt lat="41.454742000" lon="2.165077000">
        <ele>239.40</ele>
        <time>2013-04-14T08:27:11Z</time>
      </trkpt>
      <trkpt lat="41.454768000" lon="2.164841000">
        <ele>240.40</ele>
        <time>2013-04-14T08:27:18Z</time>
      </trkpt>
      <trkpt lat="41.454598000" lon="2.164689000">
        <ele>240.70</ele>
        <time>2013-04-14T08:27:25Z</time>
      </trkpt>
      <trkpt lat="41.454412000" lon="2.164684000">
        <ele>241.10</ele>
        <time>2013-04-14T08:27:31Z</time>
      </trkpt>
      <trkpt lat="41.454221000" lon="2.164612000">
        <ele>241.70</ele>
        <time>2013-04-14T08:27:38Z</time>
      </trkpt>
      <trkpt lat="41.454030000" lon="2.164468000">
        <ele>242.80</ele>
        <time>2013-04-14T08:27:45Z</time>
      </trkpt>
      <trkpt lat="41.453851000" lon="2.164408000">
        <ele>244.30</ele>
        <time>2013-04-14T08:27:52Z</time>
      </trkpt>
      <trkpt lat="41.453699000" lon="2.164513000">
        <ele>245.30</ele>
        <time>2013-04-14T08:27:59Z</time>
      </trkpt>
      <trkpt lat="41.453607000" lon="2.164737000">
        <ele>246.50</ele>
        <time>2013-04-14T08:28:07Z</time>
      </trkpt>
      <trkpt lat="41.453447000" lon="2.164716000">
        <ele>247.10</ele>
        <time>2013-04-14T08:28:15Z</time>
      </trkpt>
      <trkpt lat="41.453306000" lon="2.164560000">
        <ele>248.40</ele>
        <time>2013-04-14T08:28:23Z</time>
      </trkpt>
      <trkpt lat="41.453210000" lon="2.164325000">
        <ele>250.00</ele>
        <time>2013-04-14T08:28:31Z</time>
      </trkpt>
      <trkpt lat="41.453135000" lon="2.164106000">
        <ele>251.20</ele>
        <time>2013-04-14T08:28:39Z</time>
      </trkpt>
      <trkpt lat="41.453020000" lon="2.163890000">
        <ele>252.30</ele>
        <time>2013-04-14T08:28:47Z</time>
      </trkpt>
      <trkpt lat="41.452855000" lon="2.163935000">
        <ele>252.80</ele>
        <time>2013-04-14T08:29:02Z</time>
      </trkpt>
      <trkpt lat="41.452934000" lon="2.163921000">
        <ele>253.10</ele>
        <time>2013-04-14T08:29:18Z</time>
      </trkpt>
      <trkpt lat="41.452748000" lon="2.163982000">
        <ele>252.30</ele>
        <time>2013-04-14T08:29:35Z</time>
      </trkpt>
      <trkpt lat="41.452559000" lon="2.163908000">
        <ele>251.90</ele>
        <time>2013-04-14T08:29:44Z</time>
      </trkpt>
      <trkpt lat="41.452358000" lon="2.163884000">
        <ele>251.00</ele>
        <time>2013-04-14T08:29:52Z</time>
      </trkpt>
      <trkpt lat="41.452242000" lon="2.164074000">
        <ele>250.10</ele>
        <time>2013-04-14T08:29:58Z</time>
      </trkpt>
      <trkpt lat="41.452107000" lon="2.164263000">
        <ele>249.70</ele>
        <time>2013-04-14T08:30:04Z</time>
      </trkpt>
      <trkpt lat="41.451895000" lon="2.164260000">
        <ele>248.90</ele>
        <time>2013-04-14T08:30:11Z</time>
      </trkpt>
      <trkpt lat="41.451774000" lon="2.164040000">
        <ele>249.00</ele>
        <time>2013-04-14T08:30:16Z</time>
      </trkpt>
      <trkpt lat="41.451659000" lon="2.163828000">
        <ele>248.00</ele>
        <time>2013-04-14T08:30:21Z</time>
      </trkpt>
      <trkpt lat="41.451543000" lon="2.163625000">
        <ele>247.90</ele>
        <time>2013-04-14T08:30:26Z</time>
      </trkpt>
      <trkpt lat="41.451472000" lon="2.163369000">
        <ele>247.60</ele>
        <time>2013-04-14T08:30:31Z</time>
      </trkpt>
      <trkpt lat="41.451372000" lon="2.163131000">
        <ele>247.10</ele>
        <time>2013-04-14T08:30:36Z</time>
      </trkpt>
      <trkpt lat="41.451151000" lon="2.163066000">
        <ele>246.30</ele>
        <time>2013-04-14T08:30:41Z</time>
      </trkpt>
      <trkpt lat="41.451001000" lon="2.162936000">
        <ele>245.50</ele>
        <time>2013-04-14T08:30:45Z</time>
      </trkpt>
      <trkpt lat="41.450874000" lon="2.162742000">
        <ele>245.30</ele>
        <time>2013-04-14T08:30:49Z</time>
      </trkpt>
      <trkpt lat="41.450770000" lon="2.162526000">
        <ele>245.30</ele>
        <time>2013-04-14T08:30:53Z</time>
      </trkpt>
      <trkpt lat="41.450713000" lon="2.162290000">
        <ele>245.00</ele>
        <time>2013-04-14T08:30:57Z</time>
      </trkpt>
      <trkpt lat="41.450693000" lon="2.162015000">
        <ele>243.90</ele>
        <time>2013-04-14T08:31:01Z</time>
      </trkpt>
      <trkpt lat="41.450757000" lon="2.161746000">
        <ele>242.50</ele>
        <time>2013-04-14T08:31:05Z</time>
      </trkpt>
      <trkpt lat="41.450787000" lon="2.161503000">
        <ele>241.60</ele>
        <time>2013-04-14T08:31:08Z</time>
      </trkpt>
      <trkpt lat="41.450842000" lon="2.161253000">
        <ele>240.80</ele>
        <time>2013-04-14T08:31:11Z</time>
      </trkpt>
      <trkpt lat="41.450919000" lon="2.161016000">
        <ele>239.30</ele>
        <time>2013-04-14T08:31:14Z</time>
      </trkpt>
      <trkpt lat="41.451021000" lon="2.160789000">
        <ele>238.20</ele>
        <time>2013-04-14T08:31:17Z</time>
      </trkpt>
      <trkpt lat="41.451005000" lon="2.160524000">
        <ele>237.30</ele>
        <time>2013-04-14T08:31:20Z</time>
      </trkpt>
      <trkpt lat="41.450875000" lon="2.160327000">
        <ele>237.10</ele>
        <time>2013-04-14T08:31:23Z</time>
      </trkpt>
      <trkpt lat="41.450807000" lon="2.160090000">
        <ele>237.00</ele>
        <time>2013-04-14T08:31:26Z</time>
      </trkpt>
      <trkpt lat="41.450850000" lon="2.159846000">
        <ele>236.90</ele>
        <time>2013-04-14T08:31:29Z</time>
      </trkpt>
      <trkpt lat="41.450882000" lon="2.159583000">
        <ele>237.60</ele>
        <time>2013-04-14T08:31:32Z</time>
      </trkpt>
      <trkpt lat="41.450824000" lon="2.159301000">
        <ele>239.70</ele>
        <time>2013-04-14T08:31:36Z</time>
      </trkpt>
      <trkpt lat="41.450741000" lon="2.159068000">
        <ele>241.40</ele>
        <time>2013-04-14T08:31:42Z</time>
      </trkpt>
      <trkpt lat="41.450609000" lon="2.158895000">
        <ele>241.80</ele>
        <time>2013-04-14T08:31:48Z</time>
      </trkpt>
      <trkpt lat="41.450453000" lon="2.158725000">
        <ele>242.40</ele>
        <time>2013-04-14T08:31:55Z</time>
      </trkpt>
      <trkpt lat="41.450377000" lon="2.158517000">
        <ele>243.70</ele>
        <time>2013-04-14T08:32:02Z</time>
      </trkpt>
      <trkpt lat="41.450366000" lon="2.158260000">
        <ele>245.70</ele>
        <time>2013-04-14T08:32:09Z</time>
      </trkpt>
      <trkpt lat="41.450246000" lon="2.158034000">
        <ele>247.40</ele>
        <time>2013-04-14T08:32:16Z</time>
      </trkpt>
      <trkpt lat="41.450119000" lon="2.157833000">
        <ele>249.00</ele>
        <time>2013-04-14T08:32:23Z</time>
      </trkpt>
      <trkpt lat="41.450015000" lon="2.157620000">
        <ele>250.70</ele>
        <time>2013-04-14T08:32:30Z</time>
      </trkpt>
      <trkpt lat="41.449970000" lon="2.157437000">
        <ele>252.70</ele>
        <time>2013-04-14T08:33:09Z</time>
      </trkpt>
      <trkpt lat="41.449982000" lon="2.157185000">
        <ele>255.10</ele>
        <time>2013-04-14T08:33:18Z</time>
      </trkpt>
      <trkpt lat="41.449971000" lon="2.157014000">
        <ele>257.40</ele>
        <time>2013-04-14T08:37:51Z</time>
      </trkpt>
      <trkpt lat="41.449924000" lon="2.156775000">
        <ele>259.30</ele>
        <time>2013-04-14T08:38:07Z</time>
      </trkpt>
      <trkpt lat="41.449907000" lon="2.156719000">
        <ele>261.40</ele>
        <time>2013-04-14T08:44:06Z</time>
      </trkpt>
      <trkpt lat="41.449859000" lon="2.156522000">
        <ele>262.10</ele>
        <time>2013-04-14T08:45:14Z</time>
      </trkpt>
      <trkpt lat="41.449779000" lon="2.156289000">
        <ele>261.70</ele>
        <time>2013-04-14T08:45:20Z</time>
      </trkpt>
      <trkpt lat="41.449741000" lon="2.156047000">
        <ele>263.50</ele>
        <time>2013-04-14T08:45:27Z</time>
      </trkpt>
      <trkpt lat="41.449662000" lon="2.155791000">
        <ele>265.10</ele>
        <time>2013-04-14T08:45:35Z</time>
      </trkpt>
      <trkpt lat="41.449562000" lon="2.155540000">
        <ele>266.50</ele>
        <time>2013-04-14T08:45:43Z</time>
      </trkpt>
      <trkpt lat="41.449458000" lon="2.155304000">
        <ele>267.80</ele>
        <time>2013-04-14T08:45:51Z</time>
      </trkpt>
      <trkpt lat="41.449369000" lon="2.155072000">
        <ele>269.40</ele>
        <time>2013-04-14T08:45:59Z</time>
      </trkpt>
      <trkpt lat="41.449361000" lon="2.154832000">
        <ele>270.50</ele>
        <time>2013-04-14T08:46:07Z</time>
      </trkpt>
      <trkpt lat="41.449399000" lon="2.154574000">
        <ele>271.30</ele>
        <time>2013-04-14T08:46:16Z</time>
      </trkpt>
      <trkpt lat="41.449321000" lon="2.154346000">
        <ele>271.40</ele>
        <time>2013-04-14T08:46:24Z</time>
      </trkpt>
      <trkpt lat="41.449195000" lon="2.154156000">
        <ele>271.10</ele>
        <time>2013-04-14T08:46:31Z</time>
      </trkpt>
      <trkpt lat="41.449052000" lon="2.153940000">
        <ele>270.00</ele>
        <time>2013-04-14T08:46:37Z</time>
      </trkpt>
      <trkpt lat="41.448920000" lon="2.153743000">
        <ele>269.60</ele>
        <time>2013-04-14T08:46:42Z</time>
      </trkpt>
      <trkpt lat="41.448780000" lon="2.153547000">
        <ele>268.90</ele>
        <time>2013-04-14T08:46:47Z</time>
      </trkpt>
      <trkpt lat="41.448601000" lon="2.153392000">
        <ele>268.00</ele>
        <time>2013-04-14T08:46:52Z</time>
      </trkpt>
      <trkpt lat="41.448410000" lon="2.153366000">
        <ele>268.20</ele>
        <time>2013-04-14T08:46:57Z</time>
      </trkpt>
      <trkpt lat="41.448225000" lon="2.153324000">
        <ele>268.70</ele>
        <time>2013-04-14T08:47:03Z</time>
      </trkpt>
      <trkpt lat="41.448063000" lon="2.153197000">
        <ele>270.10</ele>
        <time>2013-04-14T08:47:10Z</time>
      </trkpt>
      <trkpt lat="41.447877000" lon="2.153065000">
        <ele>271.90</ele>
        <time>2013-04-14T08:47:15Z</time>
      </trkpt>
      <trkpt lat="41.447712000" lon="2.152936000">
        <ele>274.80</ele>
        <time>2013-04-14T08:47:20Z</time>
      </trkpt>
      <trkpt lat="41.447561000" lon="2.152784000">
        <ele>274.20</ele>
        <time>2013-04-14T08:47:38Z</time>
      </trkpt>
      <trkpt lat="41.447434000" lon="2.152594000">
        <ele>271.70</ele>
        <time>2013-04-14T08:47:43Z</time>
      </trkpt>
      <trkpt lat="41.447295000" lon="2.152370000">
        <ele>269.20</ele>
        <time>2013-04-14T08:47:47Z</time>
      </trkpt>
      <trkpt lat="41.447206000" lon="2.152104000">
        <ele>269.90</ele>
        <time>2013-04-14T08:47:51Z</time>
      </trkpt>
      <trkpt lat="41.447148000" lon="2.151848000">
        <ele>272.30</ele>
        <time>2013-04-14T08:47:56Z</time>
      </trkpt>
      <trkpt lat="41.447115000" lon="2.151608000">
        <ele>273.90</ele>
        <time>2013-04-14T08:48:02Z</time>
      </trkpt>
      <trkpt lat="41.447099000" lon="2.151367000">
        <ele>275.60</ele>
        <time>2013-04-14T08:48:08Z</time>
      </trkpt>
      <trkpt lat="41.447105000" lon="2.151108000">
        <ele>276.60</ele>
        <time>2013-04-14T08:48:17Z</time>
      </trkpt>
      <trkpt lat="41.447124000" lon="2.150852000">
        <ele>277.50</ele>
        <time>2013-04-14T08:48:25Z</time>
      </trkpt>
      <trkpt lat="41.447144000" lon="2.150613000">
        <ele>278.30</ele>
        <time>2013-04-14T08:48:33Z</time>
      </trkpt>
      <trkpt lat="41.447178000" lon="2.150366000">
        <ele>279.60</ele>
        <time>2013-04-14T08:48:41Z</time>
      </trkpt>
      <trkpt lat="41.447196000" lon="2.150126000">
        <ele>280.90</ele>
        <time>2013-04-14T08:48:49Z</time>
      </trkpt>
      <trkpt lat="41.447220000" lon="2.149870000">
        <ele>282.50</ele>
        <time>2013-04-14T08:48:57Z</time>
      </trkpt>
      <trkpt lat="41.447273000" lon="2.149632000">
        <ele>283.90</ele>
        <time>2013-04-14T08:49:05Z</time>
      </trkpt>
      <trkpt lat="41.447316000" lon="2.149375000">
        <ele>285.60</ele>
        <time>2013-04-14T08:49:13Z</time>
      </trkpt>
      <trkpt lat="41.447301000" lon="2.149126000">
        <ele>286.90</ele>
        <time>2013-04-14T08:49:20Z</time>
      </trkpt>
      <trkpt lat="41.447200000" lon="2.148895000">
        <ele>287.90</ele>
        <time>2013-04-14T08:49:28Z</time>
      </trkpt>
      <trkpt lat="41.447122000" lon="2.148661000">
        <ele>289.00</ele>
        <time>2013-04-14T08:49:36Z</time>
      </trkpt>
      <trkpt lat="41.447111000" lon="2.148405000">
        <ele>289.90</ele>
        <time>2013-04-14T08:49:45Z</time>
      </trkpt>
      <trkpt lat="41.447100000" lon="2.148163000">
        <ele>290.50</ele>
        <time>2013-04-14T08:49:54Z</time>
      </trkpt>
      <trkpt lat="41.447062000" lon="2.147907000">
        <ele>291.00</ele>
        <time>2013-04-14T08:50:03Z</time>
      </trkpt>
      <trkpt lat="41.447027000" lon="2.147660000">
        <ele>291.20</ele>
        <time>2013-04-14T08:50:13Z</time>
      </trkpt>
      <trkpt lat="41.447057000" lon="2.147416000">
        <ele>291.60</ele>
        <time>2013-04-14T08:50:23Z</time>
      </trkpt>
      <trkpt lat="41.447147000" lon="2.147208000">
        <ele>292.40</ele>
        <time>2013-04-14T08:50:33Z</time>
      </trkpt>
      <trkpt lat="41.447291000" lon="2.147039000">
        <ele>292.80</ele>
        <time>2013-04-14T08:50:44Z</time>
      </trkpt>
      <trkpt lat="41.447408000" lon="2.146857000">
        <ele>294.50</ele>
        <time>2013-04-14T08:50:54Z</time>
      </trkpt>
      <trkpt lat="41.447440000" lon="2.146617000">
        <ele>297.10</ele>
        <time>2013-04-14T08:51:04Z</time>
      </trkpt>
      <trkpt lat="41.447437000" lon="2.146382000">
        <ele>298.90</ele>
        <time>2013-04-14T08:51:14Z</time>
      </trkpt>
      <trkpt lat="41.447382000" lon="2.146117000">
        <ele>300.70</ele>
        <time>2013-04-14T08:51:24Z</time>
      </trkpt>
      <trkpt lat="41.447311000" lon="2.145871000">
        <ele>302.10</ele>
        <time>2013-04-14T08:51:34Z</time>
      </trkpt>
      <trkpt lat="41.447221000" lon="2.145621000">
        <ele>303.80</ele>
        <time>2013-04-14T08:51:44Z</time>
      </trkpt>
      <trkpt lat="41.447162000" lon="2.145393000">
        <ele>305.70</ele>
        <time>2013-04-14T08:51:54Z</time>
      </trkpt>
      <trkpt lat="41.447196000" lon="2.145158000">
        <ele>307.50</ele>
        <time>2013-04-14T08:52:04Z</time>
      </trkpt>
      <trkpt lat="41.447215000" lon="2.144904000">
        <ele>309.10</ele>
        <time>2013-04-14T08:52:13Z</time>
      </trkpt>
      <trkpt lat="41.447063000" lon="2.144732000">
        <ele>310.30</ele>
        <time>2013-04-14T08:52:22Z</time>
      </trkpt>
      <trkpt lat="41.446985000" lon="2.144504000">
        <ele>311.10</ele>
        <time>2013-04-14T08:52:32Z</time>
      </trkpt>
      <trkpt lat="41.447068000" lon="2.144289000">
        <ele>311.90</ele>
        <time>2013-04-14T08:52:41Z</time>
      </trkpt>
      <trkpt lat="41.447188000" lon="2.144077000">
        <ele>313.00</ele>
        <time>2013-04-14T08:52:50Z</time>
      </trkpt>
      <trkpt lat="41.447296000" lon="2.143862000">
        <ele>314.10</ele>
        <time>2013-04-14T08:52:59Z</time>
      </trkpt>
      <trkpt lat="41.447382000" lon="2.143652000">
        <ele>315.30</ele>
        <time>2013-04-14T08:53:08Z</time>
      </trkpt>
      <trkpt lat="41.447406000" lon="2.143386000">
        <ele>317.10</ele>
        <time>2013-04-14T08:53:17Z</time>
      </trkpt>
      <trkpt lat="41.447359000" lon="2.143141000">
        <ele>318.70</ele>
        <time>2013-04-14T08:53:26Z</time>
      </trkpt>
      <trkpt lat="41.447327000" lon="2.142904000">
        <ele>320.60</ele>
        <time>2013-04-14T08:53:37Z</time>
      </trkpt>
      <trkpt lat="41.447216000" lon="2.142707000">
        <ele>322.40</ele>
        <time>2013-04-14T08:53:46Z</time>
      </trkpt>
      <trkpt lat="41.447101000" lon="2.142514000">
        <ele>323.60</ele>
        <time>2013-04-14T08:53:55Z</time>
      </trkpt>
      <trkpt lat="41.446936000" lon="2.142388000">
        <ele>326.10</ele>
        <time>2013-04-14T08:54:04Z</time>
      </trkpt>
      <trkpt lat="41.446886000" lon="2.142177000">
        <ele>325.30</ele>
        <time>2013-04-14T08:54:52Z</time>
      </trkpt>
      <trkpt lat="41.446890000" lon="2.141949000">
        <ele>321.40</ele>
        <time>2013-04-14T08:55:24Z</time>
      </trkpt>
      <trkpt lat="41.446935000" lon="2.141713000">
        <ele>317.60</ele>
        <time>2013-04-14T08:55:55Z</time>
      </trkpt>
      <trkpt lat="41.447011000" lon="2.141497000">
        <ele>313.30</ele>
        <time>2013-04-14T08:56:12Z</time>
      </trkpt>
      <trkpt lat="41.447125000" lon="2.141380000">
        <ele>311.50</ele>
        <time>2013-04-14T08:56:28Z</time>
      </trkpt>
      <trkpt lat="41.447263000" lon="2.141216000">
        <ele>309.30</ele>
        <time>2013-04-14T08:56:53Z</time>
      </trkpt>
      <trkpt lat="41.447376000" lon="2.140999000">
        <ele>309.80</ele>
        <time>2013-04-14T08:57:00Z</time>
      </trkpt>
      <trkpt lat="41.447475000" lon="2.140792000">
        <ele>310.50</ele>
        <time>2013-04-14T08:57:07Z</time>
      </trkpt>
      <trkpt lat="41.447509000" lon="2.140535000">
        <ele>311.50</ele>
        <time>2013-04-14T08:57:15Z</time>
      </trkpt>
      <trkpt lat="41.447539000" lon="2.140286000">
        <ele>312.30</ele>
        <time>2013-04-14T08:57:23Z</time>
      </trkpt>
      <trkpt lat="41.447562000" lon="2.140028000">
        <ele>314.30</ele>
        <time>2013-04-14T08:57:32Z</time>
      </trkpt>
      <trkpt lat="41.447611000" lon="2.139800000">
        <ele>316.40</ele>
        <time>2013-04-14T08:57:41Z</time>
      </trkpt>
      <trkpt lat="41.447663000" lon="2.139568000">
        <ele>318.50</ele>
        <time>2013-04-14T08:57:51Z</time>
      </trkpt>
      <trkpt lat="41.447764000" lon="2.139368000">
        <ele>320.30</ele>
        <time>2013-04-14T08:58:00Z</time>
      </trkpt>
      <trkpt lat="41.447900000" lon="2.139203000">
        <ele>322.40</ele>
        <time>2013-04-14T08:58:09Z</time>
      </trkpt>
      <trkpt lat="41.447961000" lon="2.138954000">
        <ele>324.60</ele>
        <time>2013-04-14T08:58:19Z</time>
      </trkpt>
      <trkpt lat="41.447993000" lon="2.138698000">
        <ele>326.70</ele>
        <time>2013-04-14T08:58:30Z</time>
      </trkpt>
      <trkpt lat="41.448073000" lon="2.138467000">
        <ele>328.80</ele>
        <time>2013-04-14T08:58:39Z</time>
      </trkpt>
      <trkpt lat="41.448160000" lon="2.138259000">
        <ele>330.10</ele>
        <time>2013-04-14T08:58:48Z</time>
      </trkpt>
      <trkpt lat="41.448307000" lon="2.138119000">
        <ele>331.80</ele>
        <time>2013-04-14T08:58:58Z</time>
      </trkpt>
      <trkpt lat="41.448440000" lon="2.137959000">
        <ele>333.10</ele>
        <time>2013-04-14T08:59:07Z</time>
      </trkpt>
      <trkpt lat="41.448455000" lon="2.137727000">
        <ele>334.00</ele>
        <time>2013-04-14T08:59:16Z</time>
      </trkpt>
      <trkpt lat="41.448460000" lon="2.137649000">
        <ele>333.90</ele>
        <time>2013-04-14T08:59:32Z</time>
      </trkpt>
      <trkpt lat="41.448631000" lon="2.137783000">
        <ele>328.30</ele>
        <time>2013-04-14T08:59:38Z</time>
      </trkpt>
      <trkpt lat="41.448829000" lon="2.137842000">
        <ele>324.20</ele>
        <time>2013-04-14T08:59:44Z</time>
      </trkpt>
      <trkpt lat="41.449051000" lon="2.137890000">
        <ele>321.60</ele>
        <time>2013-04-14T08:59:49Z</time>
      </trkpt>
      <trkpt lat="41.449212000" lon="2.138043000">
        <ele>319.50</ele>
        <time>2013-04-14T08:59:53Z</time>
      </trkpt>
      <trkpt lat="41.449408000" lon="2.138114000">
        <ele>318.80</ele>
        <time>2013-04-14T08:59:57Z</time>
      </trkpt>
      <trkpt lat="41.449574000" lon="2.138230000">
        <ele>316.40</ele>
        <time>2013-04-14T09:00:04Z</time>
      </trkpt>
      <trkpt lat="41.449779000" lon="2.138323000">
        <ele>313.80</ele>
        <time>2013-04-14T09:00:09Z</time>
      </trkpt>
      <trkpt lat="41.449947000" lon="2.138442000">
        <ele>309.60</ele>
        <time>2013-04-14T09:00:14Z</time>
      </trkpt>
      <trkpt lat="41.450157000" lon="2.138432000">
        <ele>307.20</ele>
        <time>2013-04-14T09:00:18Z</time>
      </trkpt>
      <trkpt lat="41.450347000" lon="2.138397000">
        <ele>307.40</ele>
        <time>2013-04-14T09:00:22Z</time>
      </trkpt>
      <trkpt lat="41.450543000" lon="2.138380000">
        <ele>303.60</ele>
        <time>2013-04-14T09:00:29Z</time>
      </trkpt>
      <trkpt lat="41.450725000" lon="2.138364000">
        <ele>298.90</ele>
        <time>2013-04-14T09:00:35Z</time>
      </trkpt>
      <trkpt lat="41.450921000" lon="2.138283000">
        <ele>294.00</ele>
        <time>2013-04-14T09:00:43Z</time>
      </trkpt>
      <trkpt lat="41.451120000" lon="2.138171000">
        <ele>287.70</ele>
        <time>2013-04-14T09:00:51Z</time>
      </trkpt>
      <trkpt lat="41.451315000" lon="2.138076000">
        <ele>282.80</ele>
        <time>2013-04-14T09:00:57Z</time>
      </trkpt>
      <trkpt lat="41.451506000" lon="2.138009000">
        <ele>279.80</ele>
        <time>2013-04-14T09:01:32Z</time>
      </trkpt>
      <trkpt lat="41.451672000" lon="2.137884000">
        <ele>280.40</ele>
        <time>2013-04-14T09:03:19Z</time>
      </trkpt>
      <trkpt lat="41.451832000" lon="2.137749000">
        <ele>282.60</ele>
        <time>2013-04-14T09:03:29Z</time>
      </trkpt>
      <trkpt lat="41.452016000" lon="2.137712000">
        <ele>284.90</ele>
        <time>2013-04-14T09:03:41Z</time>
      </trkpt>
      <trkpt lat="41.452200000" lon="2.137656000">
        <ele>285.20</ele>
        <time>2013-04-14T09:03:50Z</time>
      </trkpt>
      <trkpt lat="41.452402000" lon="2.137624000">
        <ele>286.70</ele>
        <time>2013-04-14T09:04:02Z</time>
      </trkpt>
      <trkpt lat="41.452603000" lon="2.137535000">
        <ele>283.80</ele>
        <time>2013-04-14T09:04:25Z</time>
      </trkpt>
      <trkpt lat="41.452822000" lon="2.137446000">
        <ele>281.70</ele>
        <time>2013-04-14T09:04:30Z</time>
      </trkpt>
      <trkpt lat="41.453025000" lon="2.137395000">
        <ele>279.10</ele>
        <time>2013-04-14T09:04:35Z</time>
      </trkpt>
      <trkpt lat="41.453231000" lon="2.137344000">
        <ele>274.20</ele>
        <time>2013-04-14T09:04:43Z</time>
      </trkpt>
      <trkpt lat="41.453440000" lon="2.137293000">
        <ele>269.10</ele>
        <time>2013-04-14T09:04:52Z</time>
      </trkpt>
      <trkpt lat="41.453647000" lon="2.137283000">
        <ele>265.30</ele>
        <time>2013-04-14T09:04:58Z</time>
      </trkpt>
      <trkpt lat="41.453854000" lon="2.137215000">
        <ele>264.80</ele>
        <time>2013-04-14T09:05:04Z</time>
      </trkpt>
      <trkpt lat="41.454069000" lon="2.137204000">
        <ele>261.70</ele>
        <time>2013-04-14T09:05:09Z</time>
      </trkpt>
      <trkpt lat="41.454253000" lon="2.137082000">
        <ele>263.10</ele>
        <time>2013-04-14T09:05:46Z</time>
      </trkpt>
      <trkpt lat="41.454428000" lon="2.136995000">
        <ele>265.40</ele>
        <time>2013-04-14T09:05:53Z</time>
      </trkpt>
      <trkpt lat="41.454607000" lon="2.136883000">
        <ele>268.10</ele>
        <time>2013-04-14T09:06:03Z</time>
      </trkpt>
      <trkpt lat="41.454765000" lon="2.136783000">
        <ele>270.30</ele>
        <time>2013-04-14T09:06:14Z</time>
      </trkpt>
      <trkpt lat="41.454959000" lon="2.136818000">
        <ele>267.40</ele>
        <time>2013-04-14T09:06:41Z</time>
      </trkpt>
      <trkpt lat="41.455150000" lon="2.136859000">
        <ele>262.90</ele>
        <time>2013-04-14T09:06:47Z</time>
      </trkpt>
      <trkpt lat="41.455345000" lon="2.136889000">
        <ele>263.20</ele>
        <time>2013-04-14T09:06:52Z</time>
      </trkpt>
      <trkpt lat="41.455557000" lon="2.136872000">
        <ele>267.80</ele>
        <time>2013-04-14T09:07:00Z</time>
      </trkpt>
      <trkpt lat="41.455737000" lon="2.136874000">
        <ele>271.40</ele>
        <time>2013-04-14T09:07:11Z</time>
      </trkpt>
      <trkpt lat="41.455922000" lon="2.136869000">
        <ele>274.50</ele>
        <time>2013-04-14T09:07:20Z</time>
      </trkpt>
      <trkpt lat="41.456084000" lon="2.137017000">
        <ele>271.00</ele>
        <time>2013-04-14T09:08:07Z</time>
      </trkpt>
      <trkpt lat="41.456227000" lon="2.137160000">
        <ele>266.30</ele>
        <time>2013-04-14T09:08:16Z</time>
      </trkpt>
      <trkpt lat="41.456447000" lon="2.137171000">
        <ele>260.60</ele>
        <time>2013-04-14T09:08:23Z</time>
      </trkpt>
      <trkpt lat="41.456640000" lon="2.137200000">
        <ele>255.10</ele>
        <time>2013-04-14T09:08:42Z</time>
      </trkpt>
      <trkpt lat="41.456838000" lon="2.137208000">
        <ele>250.20</ele>
        <time>2013-04-14T09:08:58Z</time>
      </trkpt>
      <trkpt lat="41.457053000" lon="2.137250000">
        <ele>244.50</ele>
        <time>2013-04-14T09:09:08Z</time>
      </trkpt>
      <trkpt lat="41.457235000" lon="2.137182000">
        <ele>240.30</ele>
        <time>2013-04-14T09:09:13Z</time>
      </trkpt>
      <trkpt lat="41.457450000" lon="2.137134000">
        <ele>238.20</ele>
        <time>2013-04-14T09:09:20Z</time>
      </trkpt>
      <trkpt lat="41.457617000" lon="2.136966000">
        <ele>236.80</ele>
        <time>2013-04-14T09:09:26Z</time>
      </trkpt>
      <trkpt lat="41.457760000" lon="2.136793000">
        <ele>235.40</ele>
        <time>2013-04-14T09:09:32Z</time>
      </trkpt>
      <trkpt lat="41.457890000" lon="2.136606000">
        <ele>231.90</ele>
        <time>2013-04-14T09:09:39Z</time>
      </trkpt>
      <trkpt lat="41.458066000" lon="2.136524000">
        <ele>231.40</ele>
        <time>2013-04-14T09:09:44Z</time>
      </trkpt>
      <trkpt lat="41.458097000" lon="2.136438000">
        <ele>231.60</ele>
        <time>2013-04-14T09:10:51Z</time>
      </trkpt>
      <trkpt lat="41.458289000" lon="2.136394000">
        <ele>232.70</ele>
        <time>2013-04-14T09:11:00Z</time>
      </trkpt>
      <trkpt lat="41.458488000" lon="2.136357000">
        <ele>233.90</ele>
        <time>2013-04-14T09:11:12Z</time>
      </trkpt>
      <trkpt lat="41.458682000" lon="2.136349000">
        <ele>235.30</ele>
        <time>2013-04-14T09:11:21Z</time>
      </trkpt>
      <trkpt lat="41.458852000" lon="2.136370000">
        <ele>235.40</ele>
        <time>2013-04-14T09:11:27Z</time>
      </trkpt>
      <trkpt lat="41.459040000" lon="2.136383000">
        <ele>235.60</ele>
        <time>2013-04-14T09:11:33Z</time>
      </trkpt>
      <trkpt lat="41.459214000" lon="2.136298000">
        <ele>236.00</ele>
        <time>2013-04-14T09:11:39Z</time>
      </trkpt>
      <trkpt lat="41.459403000" lon="2.136253000">
        <ele>236.20</ele>
        <time>2013-04-14T09:11:45Z</time>
      </trkpt>
      <trkpt lat="41.459590000" lon="2.136353000">
        <ele>237.30</ele>
        <time>2013-04-14T09:11:51Z</time>
      </trkpt>
      <trkpt lat="41.459772000" lon="2.136490000">
        <ele>237.70</ele>
        <time>2013-04-14T09:11:57Z</time>
      </trkpt>
      <trkpt lat="41.459966000" lon="2.136603000">
        <ele>239.20</ele>
        <time>2013-04-14T09:12:03Z</time>
      </trkpt>
      <trkpt lat="41.460158000" lon="2.136555000">
        <ele>239.80</ele>
        <time>2013-04-14T09:12:09Z</time>
      </trkpt>
      <trkpt lat="41.460336000" lon="2.136467000">
        <ele>239.70</ele>
        <time>2013-04-14T09:12:14Z</time>
      </trkpt>
      <trkpt lat="41.460533000" lon="2.136421000">
        <ele>239.50</ele>
        <time>2013-04-14T09:12:19Z</time>
      </trkpt>
      <trkpt lat="41.460753000" lon="2.136431000">
        <ele>238.80</ele>
        <time>2013-04-14T09:12:25Z</time>
      </trkpt>
      <trkpt lat="41.460947000" lon="2.136489000">
        <ele>237.70</ele>
        <time>2013-04-14T09:12:31Z</time>
      </trkpt>
      <trkpt lat="41.461155000" lon="2.136506000">
        <ele>235.20</ele>
        <time>2013-04-14T09:12:37Z</time>
      </trkpt>
      <trkpt lat="41.461342000" lon="2.136601000">
        <ele>233.80</ele>
        <time>2013-04-14T09:12:41Z</time>
      </trkpt>
      <trkpt lat="41.461526000" lon="2.136643000">
        <ele>232.80</ele>
        <time>2013-04-14T09:12:48Z</time>
      </trkpt>
      <trkpt lat="41.461674000" lon="2.136518000">
        <ele>231.50</ele>
        <time>2013-04-14T09:12:54Z</time>
      </trkpt>
      <trkpt lat="41.461828000" lon="2.136342000">
        <ele>231.90</ele>
        <time>2013-04-14T09:12:59Z</time>
      </trkpt>
      <trkpt lat="41.461960000" lon="2.136179000">
        <ele>233.30</ele>
        <time>2013-04-14T09:13:03Z</time>
      </trkpt>
      <trkpt lat="41.462163000" lon="2.136136000">
        <ele>234.20</ele>
        <time>2013-04-14T09:13:09Z</time>
      </trkpt>
      <trkpt lat="41.462373000" lon="2.136115000">
        <ele>235.10</ele>
        <time>2013-04-14T09:13:16Z</time>
      </trkpt>
      <trkpt lat="41.462569000" lon="2.136090000">
        <ele>235.50</ele>
        <time>2013-04-14T09:13:23Z</time>
      </trkpt>
      <trkpt lat="41.462752000" lon="2.136171000">
        <ele>236.10</ele>
        <time>2013-04-14T09:13:30Z</time>
      </trkpt>
      <trkpt lat="41.462921000" lon="2.136191000">
        <ele>237.30</ele>
        <time>2013-04-14T09:13:42Z</time>
      </trkpt>
      <trkpt lat="41.463082000" lon="2.136061000">
        <ele>234.80</ele>
        <time>2013-04-14T09:13:49Z</time>
      </trkpt>
      <trkpt lat="41.463266000" lon="2.135983000">
        <ele>232.90</ele>
        <time>2013-04-14T09:13:53Z</time>
      </trkpt>
      <trkpt lat="41.463465000" lon="2.135832000">
        <ele>232.70</ele>
        <time>2013-04-14T09:13:58Z</time>
      </trkpt>
      <trkpt lat="41.463647000" lon="2.135778000">
        <ele>232.00</ele>
        <time>2013-04-14T09:14:02Z</time>
      </trkpt>
      <trkpt lat="41.463742000" lon="2.135579000">
        <ele>230.30</ele>
        <time>2013-04-14T09:14:10Z</time>
      </trkpt>
      <trkpt lat="41.463823000" lon="2.135323000">
        <ele>227.50</ele>
        <time>2013-04-14T09:14:16Z</time>
      </trkpt>
      <trkpt lat="41.463951000" lon="2.135086000">
        <ele>226.60</ele>
        <time>2013-04-14T09:14:21Z</time>
      </trkpt>
      <trkpt lat="41.464077000" lon="2.134890000">
        <ele>225.70</ele>
        <time>2013-04-14T09:14:27Z</time>
      </trkpt>
      <trkpt lat="41.464208000" lon="2.134709000">
        <ele>225.80</ele>
        <time>2013-04-14T09:14:34Z</time>
      </trkpt>
      <trkpt lat="41.464307000" lon="2.134488000">
        <ele>224.10</ele>
        <time>2013-04-14T09:14:45Z</time>
      </trkpt>
      <trkpt lat="41.464382000" lon="2.134238000">
        <ele>222.20</ele>
        <time>2013-04-14T09:14:51Z</time>
      </trkpt>
      <trkpt lat="41.464537000" lon="2.134090000">
        <ele>219.20</ele>
        <time>2013-04-14T09:14:56Z</time>
      </trkpt>
      <trkpt lat="41.464737000" lon="2.133988000">
        <ele>217.60</ele>
        <time>2013-04-14T09:15:00Z</time>
      </trkpt>
      <trkpt lat="41.464877000" lon="2.133770000">
        <ele>217.00</ele>
        <time>2013-04-14T09:15:04Z</time>
      </trkpt>
      <trkpt lat="41.465042000" lon="2.133572000">
        <ele>216.90</ele>
        <time>2013-04-14T09:15:09Z</time>
      </trkpt>
      <trkpt lat="41.465220000" lon="2.133404000">
        <ele>217.20</ele>
        <time>2013-04-14T09:15:15Z</time>
      </trkpt>
      <trkpt lat="41.465376000" lon="2.133248000">
        <ele>213.70</ele>
        <time>2013-04-14T09:15:21Z</time>
      </trkpt>
      <trkpt lat="41.465585000" lon="2.133168000">
        <ele>210.40</ele>
        <time>2013-04-14T09:15:27Z</time>
      </trkpt>
      <trkpt lat="41.465818000" lon="2.133072000">
        <ele>205.80</ele>
        <time>2013-04-14T09:15:32Z</time>
      </trkpt>
      <trkpt lat="41.466060000" lon="2.133009000">
        <ele>203.10</ele>
        <time>2013-04-14T09:15:39Z</time>
      </trkpt>
      <trkpt lat="41.466257000" lon="2.132915000">
        <ele>198.50</ele>
        <time>2013-04-14T09:15:47Z</time>
      </trkpt>
      <trkpt lat="41.466463000" lon="2.132784000">
        <ele>195.30</ele>
        <time>2013-04-14T09:15:53Z</time>
      </trkpt>
      <trkpt lat="41.466654000" lon="2.132702000">
        <ele>192.80</ele>
        <time>2013-04-14T09:15:58Z</time>
      </trkpt>
      <trkpt lat="41.466831000" lon="2.132585000">
        <ele>189.40</ele>
        <time>2013-04-14T09:16:03Z</time>
      </trkpt>
      <trkpt lat="41.466940000" lon="2.132354000">
        <ele>187.40</ele>
        <time>2013-04-14T09:16:09Z</time>
      </trkpt>
      <trkpt lat="41.467035000" lon="2.132165000">
        <ele>184.00</ele>
        <time>2013-04-14T09:16:45Z</time>
      </trkpt>
      <trkpt lat="41.467126000" lon="2.131914000">
        <ele>180.80</ele>
        <time>2013-04-14T09:16:52Z</time>
      </trkpt>
      <trkpt lat="41.467261000" lon="2.131710000">
        <ele>175.70</ele>
        <time>2013-04-14T09:16:58Z</time>
      </trkpt>
      <trkpt lat="41.467372000" lon="2.131476000">
        <ele>173.30</ele>
        <time>2013-04-14T09:17:03Z</time>
      </trkpt>
      <trkpt lat="41.467511000" lon="2.131226000">
        <ele>170.00</ele>
        <time>2013-04-14T09:17:09Z</time>
      </trkpt>
      <trkpt lat="41.467688000" lon="2.131122000">
        <ele>167.20</ele>
        <time>2013-04-14T09:17:15Z</time>
      </trkpt>
      <trkpt lat="41.467910000" lon="2.131089000">
        <ele>164.60</ele>
        <time>2013-04-14T09:17:21Z</time>
      </trkpt>
      <trkpt lat="41.468101000" lon="2.131096000">
        <ele>163.60</ele>
        <time>2013-04-14T09:17:27Z</time>
      </trkpt>
      <trkpt lat="41.468269000" lon="2.131184000">
        <ele>159.80</ele>
        <time>2013-04-14T09:18:11Z</time>
      </trkpt>
      <trkpt lat="41.468523000" lon="2.131200000">
        <ele>154.70</ele>
        <time>2013-04-14T09:18:23Z</time>
      </trkpt>
      <trkpt lat="41.468673000" lon="2.131031000">
        <ele>152.30</ele>
        <time>2013-04-14T09:18:29Z</time>
      </trkpt>
      <trkpt lat="41.468826000" lon="2.130870000">
        <ele>150.10</ele>
        <time>2013-04-14T09:18:34Z</time>
      </trkpt>
      <trkpt lat="41.468973000" lon="2.130702000">
        <ele>148.10</ele>
        <time>2013-04-14T09:18:41Z</time>
      </trkpt>
      <trkpt lat="41.469153000" lon="2.130532000">
        <ele>144.80</ele>
        <time>2013-04-14T09:18:48Z</time>
      </trkpt>
      <trkpt lat="41.469370000" lon="2.130398000">
        <ele>141.80</ele>
        <time>2013-04-14T09:19:04Z</time>
      </trkpt>
      <trkpt lat="41.469550000" lon="2.130262000">
        <ele>138.40</ele>
        <time>2013-04-14T09:19:13Z</time>
      </trkpt>
      <trkpt lat="41.469693000" lon="2.130059000">
        <ele>136.50</ele>
        <time>2013-04-14T09:19:19Z</time>
      </trkpt>
      <trkpt lat="41.469791000" lon="2.129821000">
        <ele>133.80</ele>
        <time>2013-04-14T09:19:27Z</time>
      </trkpt>
      <trkpt lat="41.469892000" lon="2.129611000">
        <ele>131.50</ele>
        <time>2013-04-14T09:19:32Z</time>
      </trkpt>
      <trkpt lat="41.470006000" lon="2.129360000">
        <ele>129.60</ele>
        <time>2013-04-14T09:19:37Z</time>
      </trkpt>
      <trkpt lat="41.470146000" lon="2.129123000">
        <ele>128.00</ele>
        <time>2013-04-14T09:19:43Z</time>
      </trkpt>
      <trkpt lat="41.470347000" lon="2.128931000">
        <ele>125.10</ele>
        <time>2013-04-14T09:19:51Z</time>
      </trkpt>
      <trkpt lat="41.470432000" lon="2.128999000">
        <ele>123.60</ele>
        <time>2013-04-14T09:20:05Z</time>
      </trkpt>
      <trkpt lat="41.470626000" lon="2.129024000">
        <ele>120.10</ele>
        <time>2013-04-14T09:20:27Z</time>
      </trkpt>
      <trkpt lat="41.470851000" lon="2.128959000">
        <ele>118.40</ele>
        <time>2013-04-14T09:20:33Z</time>
      </trkpt>
      <trkpt lat="41.471038000" lon="2.128859000">
        <ele>116.20</ele>
        <time>2013-04-14T09:20:37Z</time>
      </trkpt>
      <trkpt lat="41.471218000" lon="2.128576000">
        <ele>113.80</ele>
        <time>2013-04-14T09:20:42Z</time>
      </trkpt>
      <trkpt lat="41.471347000" lon="2.128312000">
        <ele>111.60</ele>
        <time>2013-04-14T09:20:47Z</time>
      </trkpt>
      <trkpt lat="41.471453000" lon="2.128033000">
        <ele>109.60</ele>
        <time>2013-04-14T09:20:52Z</time>
      </trkpt>
      <trkpt lat="41.471425000" lon="2.127739000">
        <ele>108.40</ele>
        <time>2013-04-14T09:20:58Z</time>
      </trkpt>
      <trkpt lat="41.471354000" lon="2.127504000">
        <ele>106.20</ele>
        <time>2013-04-14T09:21:03Z</time>
      </trkpt>
      <trkpt lat="41.471308000" lon="2.127259000">
        <ele>104.90</ele>
        <time>2013-04-14T09:21:16Z</time>
      </trkpt>
      <trkpt lat="41.471279000" lon="2.127127000">
        <ele>107.50</ele>
        <time>2013-04-14T09:22:12Z</time>
      </trkpt>
      <trkpt lat="41.471448000" lon="2.127145000">
        <ele>107.80</ele>
        <time>2013-04-14T09:22:26Z</time>
      </trkpt>
      <trkpt lat="41.471581000" lon="2.127307000">
        <ele>108.40</ele>
        <time>2013-04-14T09:22:36Z</time>
      </trkpt>
      <trkpt lat="41.471776000" lon="2.127359000">
        <ele>110.10</ele>
        <time>2013-04-14T09:22:46Z</time>
      </trkpt>
      <trkpt lat="41.471965000" lon="2.127420000">
        <ele>111.40</ele>
        <time>2013-04-14T09:22:56Z</time>
      </trkpt>
      <trkpt lat="41.472157000" lon="2.127493000">
        <ele>112.70</ele>
        <time>2013-04-14T09:23:05Z</time>
      </trkpt>
      <trkpt lat="41.472356000" lon="2.127568000">
        <ele>114.40</ele>
        <time>2013-04-14T09:23:11Z</time>
      </trkpt>
      <trkpt lat="41.472514000" lon="2.127692000">
        <ele>115.00</ele>
        <time>2013-04-14T09:23:20Z</time>
      </trkpt>
      <trkpt lat="41.472623000" lon="2.127536000">
        <ele>115.70</ele>
        <time>2013-04-14T09:23:34Z</time>
      </trkpt>
      <trkpt lat="41.472749000" lon="2.127424000">
        <ele>116.40</ele>
        <time>2013-04-14T09:23:51Z</time>
      </trkpt>
      <trkpt lat="41.472917000" lon="2.127536000">
        <ele>117.20</ele>
        <time>2013-04-14T09:24:00Z</time>
      </trkpt>
      <trkpt lat="41.473082000" lon="2.127644000">
        <ele>117.90</ele>
        <time>2013-04-14T09:24:08Z</time>
      </trkpt>
      <trkpt lat="41.473259000" lon="2.127754000">
        <ele>118.80</ele>
        <time>2013-04-14T09:24:15Z</time>
      </trkpt>
      <trkpt lat="41.473431000" lon="2.127864000">
        <ele>119.50</ele>
        <time>2013-04-14T09:24:21Z</time>
      </trkpt>
      <trkpt lat="41.473573000" lon="2.128017000">
        <ele>120.60</ele>
        <time>2013-04-14T09:24:28Z</time>
      </trkpt>
      <trkpt lat="41.473683000" lon="2.128198000">
        <ele>121.20</ele>
        <time>2013-04-14T09:24:38Z</time>
      </trkpt>
      <trkpt lat="41.473858000" lon="2.128181000">
        <ele>121.30</ele>
        <time>2013-04-14T09:24:47Z</time>
      </trkpt>
      <trkpt lat="41.474040000" lon="2.128129000">
        <ele>120.60</ele>
        <time>2013-04-14T09:24:54Z</time>
      </trkpt>
      <trkpt lat="41.474225000" lon="2.128061000">
        <ele>122.00</ele>
        <time>2013-04-14T09:25:02Z</time>
      </trkpt>
      <trkpt lat="41.474389000" lon="2.127979000">
        <ele>123.40</ele>
        <time>2013-04-14T09:25:09Z</time>
      </trkpt>
      <trkpt lat="41.474569000" lon="2.127834000">
        <ele>124.40</ele>
        <time>2013-04-14T09:25:17Z</time>
      </trkpt>
      <trkpt lat="41.474700000" lon="2.127653000">
        <ele>125.90</ele>
        <time>2013-04-14T09:25:25Z</time>
      </trkpt>
      <trkpt lat="41.474767000" lon="2.127438000">
        <ele>125.80</ele>
        <time>2013-04-14T09:25:34Z</time>
      </trkpt>
      <trkpt lat="41.474813000" lon="2.127193000">
        <ele>126.30</ele>
        <time>2013-04-14T09:25:44Z</time>
      </trkpt>
      <trkpt lat="41.474841000" lon="2.126924000">
        <ele>125.70</ele>
        <time>2013-04-14T09:25:52Z</time>
      </trkpt>
      <trkpt lat="41.474904000" lon="2.126679000">
        <ele>125.10</ele>
        <time>2013-04-14T09:25:58Z</time>
      </trkpt>
      <trkpt lat="41.475054000" lon="2.126491000">
        <ele>125.00</ele>
        <time>2013-04-14T09:26:07Z</time>
      </trkpt>
      <trkpt lat="41.475183000" lon="2.126301000">
        <ele>123.30</ele>
        <time>2013-04-14T09:26:13Z</time>
      </trkpt>
      <trkpt lat="41.475226000" lon="2.126059000">
        <ele>121.20</ele>
        <time>2013-04-14T09:26:18Z</time>
      </trkpt>
      <trkpt lat="41.475209000" lon="2.125835000">
        <ele>119.50</ele>
        <time>2013-04-14T09:26:31Z</time>
      </trkpt>
      <trkpt lat="41.475346000" lon="2.125746000">
        <ele>113.40</ele>
        <time>2013-04-14T09:26:42Z</time>
      </trkpt>
      <trkpt lat="41.475450000" lon="2.125960000">
        <ele>112.00</ele>
        <time>2013-04-14T09:26:50Z</time>
      </trkpt>
      <trkpt lat="41.475509000" lon="2.126194000">
        <ele>110.40</ele>
        <time>2013-04-14T09:27:21Z</time>
      </trkpt>
      <trkpt lat="41.475539000" lon="2.126444000">
        <ele>106.20</ele>
        <time>2013-04-14T09:27:28Z</time>
      </trkpt>
      <trkpt lat="41.475648000" lon="2.126671000">
        <ele>104.20</ele>
        <time>2013-04-14T09:27:33Z</time>
      </trkpt>
      <trkpt lat="41.475780000" lon="2.126884000">
        <ele>102.10</ele>
        <time>2013-04-14T09:27:39Z</time>
      </trkpt>
      <trkpt lat="41.475860000" lon="2.127133000">
        <ele>100.00</ele>
        <time>2013-04-14T09:27:47Z</time>
      </trkpt>
      <trkpt lat="41.475950000" lon="2.127384000">
        <ele>98.10</ele>
        <time>2013-04-14T09:27:53Z</time>
      </trkpt>
      <trkpt lat="41.476036000" lon="2.127619000">
        <ele>96.50</ele>
        <time>2013-04-14T09:28:02Z</time>
      </trkpt>
      <trkpt lat="41.476112000" lon="2.127839000">
        <ele>93.80</ele>
        <time>2013-04-14T09:28:22Z</time>
      </trkpt>
      <trkpt lat="41.476216000" lon="2.128073000">
        <ele>92.00</ele>
        <time>2013-04-14T09:28:35Z</time>
      </trkpt>
      <trkpt lat="41.476300000" lon="2.128284000">
        <ele>93.40</ele>
        <time>2013-04-14T09:28:41Z</time>
      </trkpt>
      <trkpt lat="41.476436000" lon="2.128380000">
        <ele>95.30</ele>
        <time>2013-04-14T09:28:47Z</time>
      </trkpt>
      <trkpt lat="41.476531000" lon="2.128624000">
        <ele>98.40</ele>
        <time>2013-04-14T09:28:53Z</time>
      </trkpt>
      <trkpt lat="41.476643000" lon="2.128809000">
        <ele>99.10</ele>
        <time>2013-04-14T09:29:08Z</time>
      </trkpt>
      <trkpt lat="41.476746000" lon="2.129010000">
        <ele>100.00</ele>
        <time>2013-04-14T09:29:21Z</time>
      </trkpt>
      <trkpt lat="41.476887000" lon="2.129181000">
        <ele>100.70</ele>
        <time>2013-04-14T09:29:30Z</time>
      </trkpt>
      <trkpt lat="41.477067000" lon="2.129257000">
        <ele>102.10</ele>
        <time>2013-04-14T09:29:38Z</time>
      </trkpt>
      <trkpt lat="41.477265000" lon="2.129336000">
        <ele>101.70</ele>
        <time>2013-04-14T09:29:45Z</time>
      </trkpt>
      <trkpt lat="41.477436000" lon="2.129501000">
        <ele>102.30</ele>
        <time>2013-04-14T09:29:52Z</time>
      </trkpt>
      <trkpt lat="41.477537000" lon="2.129693000">
        <ele>102.50</ele>
        <time>2013-04-14T09:30:01Z</time>
      </trkpt>
      <trkpt lat="41.477727000" lon="2.129785000">
        <ele>101.30</ele>
        <time>2013-04-14T09:30:09Z</time>
      </trkpt>
      <trkpt lat="41.477915000" lon="2.129798000">
        <ele>100.30</ele>
        <time>2013-04-14T09:30:18Z</time>
      </trkpt>
      <trkpt lat="41.478093000" lon="2.129914000">
        <ele>98.80</ele>
        <time>2013-04-14T09:30:25Z</time>
      </trkpt>
      <trkpt lat="41.478232000" lon="2.130151000">
        <ele>96.70</ele>
        <time>2013-04-14T09:30:30Z</time>
      </trkpt>
      <trkpt lat="41.478385000" lon="2.130378000">
        <ele>95.50</ele>
        <time>2013-04-14T09:30:34Z</time>
      </trkpt>
      <trkpt lat="41.478541000" lon="2.130603000">
        <ele>94.20</ele>
        <time>2013-04-14T09:30:38Z</time>
      </trkpt>
      <trkpt lat="41.478694000" lon="2.130832000">
        <ele>93.20</ele>
        <time>2013-04-14T09:30:42Z</time>
      </trkpt>
      <trkpt lat="41.478854000" lon="2.131080000">
        <ele>92.20</ele>
        <time>2013-04-14T09:30:46Z</time>
      </trkpt>
      <trkpt lat="41.478973000" lon="2.131265000">
        <ele>92.00</ele>
        <time>2013-04-14T09:30:49Z</time>
      </trkpt>
      <trkpt lat="41.479099000" lon="2.131455000">
        <ele>91.00</ele>
        <time>2013-04-14T09:30:52Z</time>
      </trkpt>
      <trkpt lat="41.479230000" lon="2.131646000">
        <ele>90.10</ele>
        <time>2013-04-14T09:30:55Z</time>
      </trkpt>
      <trkpt lat="41.479383000" lon="2.131831000">
        <ele>89.00</ele>
        <time>2013-04-14T09:30:58Z</time>
      </trkpt>
      <trkpt lat="41.479570000" lon="2.131936000">
        <ele>88.00</ele>
        <time>2013-04-14T09:31:01Z</time>
      </trkpt>
      <trkpt lat="41.479762000" lon="2.131994000">
        <ele>86.70</ele>
        <time>2013-04-14T09:31:04Z</time>
      </trkpt>
      <trkpt lat="41.479948000" lon="2.131884000">
        <ele>87.30</ele>
        <time>2013-04-14T09:31:07Z</time>
      </trkpt>
      <trkpt lat="41.480121000" lon="2.131715000">
        <ele>86.40</ele>
        <time>2013-04-14T09:31:10Z</time>
      </trkpt>
      <trkpt lat="41.480338000" lon="2.131609000">
        <ele>85.20</ele>
        <time>2013-04-14T09:31:13Z</time>
      </trkpt>
      <trkpt lat="41.480562000" lon="2.131682000">
        <ele>84.10</ele>
        <time>2013-04-14T09:31:16Z</time>
      </trkpt>
      <trkpt lat="41.480774000" lon="2.131799000">
        <ele>83.70</ele>
        <time>2013-04-14T09:31:19Z</time>
      </trkpt>
      <trkpt lat="41.480964000" lon="2.131894000">
        <ele>84.10</ele>
        <time>2013-04-14T09:31:23Z</time>
      </trkpt>
      <trkpt lat="41.481139000" lon="2.131984000">
        <ele>82.80</ele>
        <time>2013-04-14T09:31:29Z</time>
      </trkpt>
      <trkpt lat="41.481343000" lon="2.132092000">
        <ele>81.20</ele>
        <time>2013-04-14T09:31:33Z</time>
      </trkpt>
      <trkpt lat="41.481539000" lon="2.132226000">
        <ele>78.60</ele>
        <time>2013-04-14T09:31:36Z</time>
      </trkpt>
      <trkpt lat="41.481752000" lon="2.132431000">
        <ele>76.30</ele>
        <time>2013-04-14T09:31:39Z</time>
      </trkpt>
      <trkpt lat="41.481916000" lon="2.132582000">
        <ele>74.30</ele>
        <time>2013-04-14T09:31:41Z</time>
      </trkpt>
      <trkpt lat="41.482099000" lon="2.132716000">
        <ele>71.40</ele>
        <time>2013-04-14T09:31:43Z</time>
      </trkpt>
      <trkpt lat="41.482306000" lon="2.132786000">
        <ele>71.00</ele>
        <time>2013-04-14T09:31:45Z</time>
      </trkpt>
      <trkpt lat="41.482518000" lon="2.132775000">
        <ele>71.40</ele>
        <time>2013-04-14T09:31:47Z</time>
      </trkpt>
      <trkpt lat="41.482718000" lon="2.132742000">
        <ele>72.30</ele>
        <time>2013-04-14T09:31:49Z</time>
      </trkpt>
      <trkpt lat="41.482916000" lon="2.132720000">
        <ele>71.20</ele>
        <time>2013-04-14T09:31:51Z</time>
      </trkpt>
      <trkpt lat="41.483115000" lon="2.132696000">
        <ele>71.30</ele>
        <time>2013-04-14T09:31:53Z</time>
      </trkpt>
      <trkpt lat="41.483303000" lon="2.132672000">
        <ele>71.40</ele>
        <time>2013-04-14T09:31:55Z</time>
      </trkpt>
      <trkpt lat="41.483558000" lon="2.132641000">
        <ele>73.50</ele>
        <time>2013-04-14T09:31:58Z</time>
      </trkpt>
      <trkpt lat="41.483800000" lon="2.132610000">
        <ele>75.60</ele>
        <time>2013-04-14T09:32:01Z</time>
      </trkpt>
      <trkpt lat="41.484019000" lon="2.132593000">
        <ele>77.20</ele>
        <time>2013-04-14T09:32:04Z</time>
      </trkpt>
      <trkpt lat="41.484253000" lon="2.132555000">
        <ele>79.20</ele>
        <time>2013-04-14T09:32:07Z</time>
      </trkpt>
      <trkpt lat="41.484476000" lon="2.132524000">
        <ele>79.60</ele>
        <time>2013-04-14T09:32:10Z</time>
      </trkpt>
      <trkpt lat="41.484680000" lon="2.132495000">
        <ele>80.40</ele>
        <time>2013-04-14T09:32:13Z</time>
      </trkpt>
      <trkpt lat="41.484858000" lon="2.132485000">
        <ele>81.60</ele>
        <time>2013-04-14T09:32:16Z</time>
      </trkpt>
      <trkpt lat="41.485041000" lon="2.132490000">
        <ele>82.10</ele>
        <time>2013-04-14T09:32:20Z</time>
      </trkpt>
      <trkpt lat="41.485199000" lon="2.132576000">
        <ele>83.10</ele>
        <time>2013-04-14T09:32:26Z</time>
      </trkpt>
      <trkpt lat="41.485181000" lon="2.132796000">
        <ele>83.40</ele>
        <time>2013-04-14T09:32:38Z</time>
      </trkpt>
      <trkpt lat="41.485182000" lon="2.132792000">
        <ele>83.70</ele>
        <time>2013-04-14T10:59:27Z</time>
      </trkpt>
      <trkpt lat="41.485026000" lon="2.132737000">
        <ele>86.70</ele>
        <time>2013-04-14T10:59:38Z</time>
      </trkpt>
      <trkpt lat="41.485026000" lon="2.132998000">
        <ele>87.70</ele>
        <time>2013-04-14T10:59:47Z</time>
      </trkpt>
      <trkpt lat="41.485052000" lon="2.133258000">
        <ele>87.70</ele>
        <time>2013-04-14T10:59:59Z</time>
      </trkpt>
      <trkpt lat="41.485069000" lon="2.133562000">
        <ele>87.10</ele>
        <time>2013-04-14T11:00:07Z</time>
      </trkpt>
      <trkpt lat="41.485080000" lon="2.133830000">
        <ele>86.80</ele>
        <time>2013-04-14T11:00:13Z</time>
      </trkpt>
      <trkpt lat="41.485093000" lon="2.134102000">
        <ele>87.30</ele>
        <time>2013-04-14T11:00:20Z</time>
      </trkpt>
      <trkpt lat="41.485114000" lon="2.134363000">
        <ele>88.00</ele>
        <time>2013-04-14T11:00:27Z</time>
      </trkpt>
      <trkpt lat="41.485133000" lon="2.134629000">
        <ele>88.70</ele>
        <time>2013-04-14T11:00:35Z</time>
      </trkpt>
      <trkpt lat="41.485100000" lon="2.134821000">
        <ele>89.10</ele>
        <time>2013-04-14T11:00:46Z</time>
      </trkpt>
      <trkpt lat="41.484909000" lon="2.134740000">
        <ele>87.40</ele>
        <time>2013-04-14T11:00:52Z</time>
      </trkpt>
      <trkpt lat="41.484721000" lon="2.134657000">
        <ele>86.10</ele>
        <time>2013-04-14T11:00:57Z</time>
      </trkpt>
      <trkpt lat="41.484540000" lon="2.134645000">
        <ele>85.00</ele>
        <time>2013-04-14T11:01:02Z</time>
      </trkpt>
      <trkpt lat="41.484329000" lon="2.134702000">
        <ele>82.60</ele>
        <time>2013-04-14T11:01:06Z</time>
      </trkpt>
      <trkpt lat="41.484108000" lon="2.134759000">
        <ele>79.40</ele>
        <time>2013-04-14T11:01:09Z</time>
      </trkpt>
      <trkpt lat="41.483873000" lon="2.134816000">
        <ele>78.30</ele>
        <time>2013-04-14T11:01:12Z</time>
      </trkpt>
      <trkpt lat="41.483670000" lon="2.134850000">
        <ele>77.90</ele>
        <time>2013-04-14T11:01:16Z</time>
      </trkpt>
      <trkpt lat="41.483568000" lon="2.134993000">
        <ele>76.90</ele>
        <time>2013-04-14T11:01:21Z</time>
      </trkpt>
      <trkpt lat="41.483628000" lon="2.135245000">
        <ele>76.60</ele>
        <time>2013-04-14T11:01:26Z</time>
      </trkpt>
      <trkpt lat="41.483645000" lon="2.135520000">
        <ele>78.40</ele>
        <time>2013-04-14T11:01:32Z</time>
      </trkpt>
      <trkpt lat="41.483580000" lon="2.135744000">
        <ele>80.00</ele>
        <time>2013-04-14T11:01:39Z</time>
      </trkpt>
      <trkpt lat="41.483443000" lon="2.135925000">
        <ele>79.00</ele>
        <time>2013-04-14T11:01:48Z</time>
      </trkpt>
      <trkpt lat="41.483255000" lon="2.135957000">
        <ele>76.80</ele>
        <time>2013-04-14T11:01:53Z</time>
      </trkpt>
      <trkpt lat="41.483082000" lon="2.136073000">
        <ele>75.60</ele>
        <time>2013-04-14T11:01:57Z</time>
      </trkpt>
      <trkpt lat="41.482915000" lon="2.136217000">
        <ele>75.40</ele>
        <time>2013-04-14T11:02:01Z</time>
      </trkpt>
      <trkpt lat="41.482766000" lon="2.136420000">
        <ele>74.20</ele>
        <time>2013-04-14T11:02:05Z</time>
      </trkpt>
      <trkpt lat="41.482636000" lon="2.136660000">
        <ele>72.90</ele>
        <time>2013-04-14T11:02:09Z</time>
      </trkpt>
      <trkpt lat="41.482546000" lon="2.136955000">
        <ele>71.70</ele>
        <time>2013-04-14T11:02:13Z</time>
      </trkpt>
      <trkpt lat="41.482536000" lon="2.137233000">
        <ele>71.70</ele>
        <time>2013-04-14T11:02:17Z</time>
      </trkpt>
      <trkpt lat="41.482554000" lon="2.137502000">
        <ele>70.90</ele>
        <time>2013-04-14T11:02:21Z</time>
      </trkpt>
      <trkpt lat="41.482554000" lon="2.137793000">
        <ele>70.80</ele>
        <time>2013-04-14T11:02:25Z</time>
      </trkpt>
      <trkpt lat="41.482538000" lon="2.138043000">
        <ele>71.00</ele>
        <time>2013-04-14T11:02:29Z</time>
      </trkpt>
      <trkpt lat="41.482468000" lon="2.138262000">
        <ele>71.00</ele>
        <time>2013-04-14T11:02:33Z</time>
      </trkpt>
      <trkpt lat="41.482367000" lon="2.138498000">
        <ele>70.50</ele>
        <time>2013-04-14T11:02:37Z</time>
      </trkpt>
      <trkpt lat="41.482272000" lon="2.138728000">
        <ele>70.40</ele>
        <time>2013-04-14T11:02:41Z</time>
      </trkpt>
      <trkpt lat="41.482177000" lon="2.138937000">
        <ele>70.50</ele>
        <time>2013-04-14T11:02:45Z</time>
      </trkpt>
      <trkpt lat="41.482114000" lon="2.139177000">
        <ele>69.90</ele>
        <time>2013-04-14T11:02:49Z</time>
      </trkpt>
      <trkpt lat="41.482029000" lon="2.139451000">
        <ele>70.70</ele>
        <time>2013-04-14T11:02:54Z</time>
      </trkpt>
      <trkpt lat="41.481956000" lon="2.139705000">
        <ele>71.00</ele>
        <time>2013-04-14T11:02:59Z</time>
      </trkpt>
      <trkpt lat="41.481882000" lon="2.139950000">
        <ele>70.70</ele>
        <time>2013-04-14T11:03:04Z</time>
      </trkpt>
      <trkpt lat="41.481792000" lon="2.140192000">
        <ele>70.40</ele>
        <time>2013-04-14T11:03:09Z</time>
      </trkpt>
      <trkpt lat="41.481696000" lon="2.140439000">
        <ele>70.30</ele>
        <time>2013-04-14T11:03:14Z</time>
      </trkpt>
      <trkpt lat="41.481613000" lon="2.140676000">
        <ele>70.10</ele>
        <time>2013-04-14T11:03:19Z</time>
      </trkpt>
      <trkpt lat="41.481541000" lon="2.140905000">
        <ele>69.50</ele>
        <time>2013-04-14T11:03:23Z</time>
      </trkpt>
      <trkpt lat="41.481465000" lon="2.141163000">
        <ele>68.50</ele>
        <time>2013-04-14T11:03:27Z</time>
      </trkpt>
      <trkpt lat="41.481380000" lon="2.141440000">
        <ele>68.40</ele>
        <time>2013-04-14T11:03:31Z</time>
      </trkpt>
      <trkpt lat="41.481320000" lon="2.141686000">
        <ele>67.90</ele>
        <time>2013-04-14T11:03:35Z</time>
      </trkpt>
      <trkpt lat="41.481257000" lon="2.141967000">
        <ele>68.00</ele>
        <time>2013-04-14T11:03:40Z</time>
      </trkpt>
      <trkpt lat="41.481189000" lon="2.142240000">
        <ele>68.10</ele>
        <time>2013-04-14T11:03:45Z</time>
      </trkpt>
      <trkpt lat="41.481132000" lon="2.142468000">
        <ele>67.60</ele>
        <time>2013-04-14T11:03:49Z</time>
      </trkpt>
      <trkpt lat="41.481139000" lon="2.142752000">
        <ele>67.20</ele>
        <time>2013-04-14T11:03:54Z</time>
      </trkpt>
      <trkpt lat="41.480968000" lon="2.142812000">
        <ele>65.00</ele>
        <time>2013-04-14T11:03:59Z</time>
      </trkpt>
      <trkpt lat="41.480772000" lon="2.142766000">
        <ele>66.50</ele>
        <time>2013-04-14T11:04:03Z</time>
      </trkpt>
      <trkpt lat="41.480564000" lon="2.142745000">
        <ele>68.30</ele>
        <time>2013-04-14T11:04:09Z</time>
      </trkpt>
      <trkpt lat="41.480376000" lon="2.142694000">
        <ele>69.90</ele>
        <time>2013-04-14T11:04:15Z</time>
      </trkpt>
      <trkpt lat="41.480190000" lon="2.142670000">
        <ele>71.50</ele>
        <time>2013-04-14T11:04:22Z</time>
      </trkpt>
      <trkpt lat="41.479994000" lon="2.142642000">
        <ele>72.80</ele>
        <time>2013-04-14T11:04:29Z</time>
      </trkpt>
      <trkpt lat="41.479806000" lon="2.142622000">
        <ele>74.00</ele>
        <time>2013-04-14T11:04:36Z</time>
      </trkpt>
      <trkpt lat="41.479612000" lon="2.142582000">
        <ele>75.60</ele>
        <time>2013-04-14T11:04:44Z</time>
      </trkpt>
      <trkpt lat="41.479418000" lon="2.142541000">
        <ele>76.90</ele>
        <time>2013-04-14T11:04:52Z</time>
      </trkpt>
      <trkpt lat="41.479230000" lon="2.142527000">
        <ele>78.10</ele>
        <time>2013-04-14T11:04:59Z</time>
      </trkpt>
      <trkpt lat="41.479049000" lon="2.142539000">
        <ele>78.80</ele>
        <time>2013-04-14T11:05:06Z</time>
      </trkpt>
      <trkpt lat="41.478908000" lon="2.142707000">
        <ele>79.60</ele>
        <time>2013-04-14T11:05:13Z</time>
      </trkpt>
      <trkpt lat="41.478768000" lon="2.142908000">
        <ele>80.40</ele>
        <time>2013-04-14T11:05:21Z</time>
      </trkpt>
      <trkpt lat="41.478641000" lon="2.143090000">
        <ele>81.50</ele>
        <time>2013-04-14T11:05:29Z</time>
      </trkpt>
      <trkpt lat="41.478523000" lon="2.143286000">
        <ele>82.20</ele>
        <time>2013-04-14T11:05:38Z</time>
      </trkpt>
      <trkpt lat="41.478363000" lon="2.143471000">
        <ele>82.70</ele>
        <time>2013-04-14T11:05:46Z</time>
      </trkpt>
      <trkpt lat="41.478227000" lon="2.143653000">
        <ele>83.30</ele>
        <time>2013-04-14T11:05:53Z</time>
      </trkpt>
      <trkpt lat="41.478052000" lon="2.143773000">
        <ele>83.70</ele>
        <time>2013-04-14T11:06:02Z</time>
      </trkpt>
      <trkpt lat="41.477870000" lon="2.143760000">
        <ele>84.40</ele>
        <time>2013-04-14T11:06:08Z</time>
      </trkpt>
      <trkpt lat="41.477681000" lon="2.143722000">
        <ele>84.80</ele>
        <time>2013-04-14T11:06:17Z</time>
      </trkpt>
      <trkpt lat="41.477490000" lon="2.143728000">
        <ele>84.80</ele>
        <time>2013-04-14T11:06:27Z</time>
      </trkpt>
      <trkpt lat="41.477344000" lon="2.143947000">
        <ele>83.80</ele>
        <time>2013-04-14T11:06:34Z</time>
      </trkpt>
      <trkpt lat="41.477222000" lon="2.144204000">
        <ele>82.90</ele>
        <time>2013-04-14T11:06:40Z</time>
      </trkpt>
      <trkpt lat="41.477119000" lon="2.144413000">
        <ele>83.10</ele>
        <time>2013-04-14T11:06:45Z</time>
      </trkpt>
      <trkpt lat="41.477039000" lon="2.144640000">
        <ele>82.40</ele>
        <time>2013-04-14T11:06:50Z</time>
      </trkpt>
      <trkpt lat="41.477010000" lon="2.144879000">
        <ele>82.40</ele>
        <time>2013-04-14T11:06:55Z</time>
      </trkpt>
      <trkpt lat="41.477033000" lon="2.145128000">
        <ele>83.50</ele>
        <time>2013-04-14T11:07:01Z</time>
      </trkpt>
      <trkpt lat="41.477049000" lon="2.145375000">
        <ele>84.30</ele>
        <time>2013-04-14T11:07:08Z</time>
      </trkpt>
      <trkpt lat="41.477000000" lon="2.145623000">
        <ele>84.60</ele>
        <time>2013-04-14T11:07:15Z</time>
      </trkpt>
      <trkpt lat="41.476920000" lon="2.145858000">
        <ele>84.30</ele>
        <time>2013-04-14T11:07:21Z</time>
      </trkpt>
      <trkpt lat="41.476788000" lon="2.146060000">
        <ele>83.90</ele>
        <time>2013-04-14T11:07:27Z</time>
      </trkpt>
      <trkpt lat="41.476608000" lon="2.146179000">
        <ele>83.90</ele>
        <time>2013-04-14T11:07:33Z</time>
      </trkpt>
      <trkpt lat="41.476412000" lon="2.146264000">
        <ele>84.00</ele>
        <time>2013-04-14T11:07:39Z</time>
      </trkpt>
      <trkpt lat="41.476220000" lon="2.146373000">
        <ele>83.50</ele>
        <time>2013-04-14T11:07:45Z</time>
      </trkpt>
      <trkpt lat="41.476048000" lon="2.146464000">
        <ele>83.30</ele>
        <time>2013-04-14T11:07:50Z</time>
      </trkpt>
      <trkpt lat="41.475844000" lon="2.146529000">
        <ele>83.70</ele>
        <time>2013-04-14T11:07:56Z</time>
      </trkpt>
      <trkpt lat="41.475638000" lon="2.146521000">
        <ele>83.60</ele>
        <time>2013-04-14T11:08:02Z</time>
      </trkpt>
      <trkpt lat="41.475422000" lon="2.146437000">
        <ele>84.30</ele>
        <time>2013-04-14T11:08:09Z</time>
      </trkpt>
      <trkpt lat="41.475219000" lon="2.146367000">
        <ele>83.70</ele>
        <time>2013-04-14T11:08:15Z</time>
      </trkpt>
      <trkpt lat="41.475012000" lon="2.146336000">
        <ele>84.20</ele>
        <time>2013-04-14T11:08:21Z</time>
      </trkpt>
      <trkpt lat="41.474825000" lon="2.146414000">
        <ele>83.90</ele>
        <time>2013-04-14T11:08:28Z</time>
      </trkpt>
      <trkpt lat="41.474638000" lon="2.146518000">
        <ele>83.20</ele>
        <time>2013-04-14T11:08:34Z</time>
      </trkpt>
      <trkpt lat="41.474474000" lon="2.146618000">
        <ele>82.40</ele>
        <time>2013-04-14T11:08:39Z</time>
      </trkpt>
      <trkpt lat="41.474251000" lon="2.146645000">
        <ele>81.80</ele>
        <time>2013-04-14T11:08:44Z</time>
      </trkpt>
      <trkpt lat="41.474032000" lon="2.146641000">
        <ele>81.50</ele>
        <time>2013-04-14T11:08:49Z</time>
      </trkpt>
      <trkpt lat="41.473818000" lon="2.146681000">
        <ele>81.20</ele>
        <time>2013-04-14T11:08:55Z</time>
      </trkpt>
      <trkpt lat="41.473641000" lon="2.146661000">
        <ele>78.80</ele>
        <time>2013-04-14T11:08:59Z</time>
      </trkpt>
      <trkpt lat="41.473550000" lon="2.146362000">
        <ele>75.40</ele>
        <time>2013-04-14T11:09:03Z</time>
      </trkpt>
      <trkpt lat="41.473508000" lon="2.146091000">
        <ele>74.20</ele>
        <time>2013-04-14T11:09:06Z</time>
      </trkpt>
      <trkpt lat="41.473341000" lon="2.146048000">
        <ele>75.50</ele>
        <time>2013-04-14T11:09:10Z</time>
      </trkpt>
      <trkpt lat="41.473177000" lon="2.146192000">
        <ele>76.90</ele>
        <time>2013-04-14T11:09:17Z</time>
      </trkpt>
      <trkpt lat="41.473019000" lon="2.146317000">
        <ele>78.70</ele>
        <time>2013-04-14T11:09:25Z</time>
      </trkpt>
      <trkpt lat="41.472851000" lon="2.146438000">
        <ele>80.20</ele>
        <time>2013-04-14T11:09:34Z</time>
      </trkpt>
      <trkpt lat="41.472732000" lon="2.146633000">
        <ele>81.30</ele>
        <time>2013-04-14T11:09:43Z</time>
      </trkpt>
      <trkpt lat="41.472661000" lon="2.146889000">
        <ele>82.10</ele>
        <time>2013-04-14T11:09:52Z</time>
      </trkpt>
      <trkpt lat="41.472673000" lon="2.147169000">
        <ele>83.20</ele>
        <time>2013-04-14T11:10:01Z</time>
      </trkpt>
      <trkpt lat="41.472654000" lon="2.147431000">
        <ele>83.70</ele>
        <time>2013-04-14T11:10:10Z</time>
      </trkpt>
      <trkpt lat="41.472544000" lon="2.147648000">
        <ele>83.90</ele>
        <time>2013-04-14T11:10:19Z</time>
      </trkpt>
      <trkpt lat="41.472436000" lon="2.147852000">
        <ele>84.60</ele>
        <time>2013-04-14T11:10:27Z</time>
      </trkpt>
      <trkpt lat="41.472280000" lon="2.148022000">
        <ele>85.20</ele>
        <time>2013-04-14T11:10:36Z</time>
      </trkpt>
      <trkpt lat="41.472082000" lon="2.148070000">
        <ele>85.50</ele>
        <time>2013-04-14T11:10:45Z</time>
      </trkpt>
      <trkpt lat="41.471888000" lon="2.148058000">
        <ele>85.80</ele>
        <time>2013-04-14T11:10:53Z</time>
      </trkpt>
      <trkpt lat="41.471691000" lon="2.147996000">
        <ele>85.50</ele>
        <time>2013-04-14T11:11:00Z</time>
      </trkpt>
      <trkpt lat="41.471509000" lon="2.147996000">
        <ele>84.70</ele>
        <time>2013-04-14T11:11:05Z</time>
      </trkpt>
      <trkpt lat="41.471341000" lon="2.148199000">
        <ele>83.60</ele>
        <time>2013-04-14T11:11:10Z</time>
      </trkpt>
      <trkpt lat="41.471225000" lon="2.148448000">
        <ele>82.60</ele>
        <time>2013-04-14T11:11:14Z</time>
      </trkpt>
      <trkpt lat="41.471130000" lon="2.148671000">
        <ele>80.10</ele>
        <time>2013-04-14T11:11:17Z</time>
      </trkpt>
      <trkpt lat="41.471044000" lon="2.148908000">
        <ele>79.20</ele>
        <time>2013-04-14T11:11:20Z</time>
      </trkpt>
      <trkpt lat="41.470970000" lon="2.149130000">
        <ele>80.60</ele>
        <time>2013-04-14T11:11:23Z</time>
      </trkpt>
      <trkpt lat="41.470867000" lon="2.149377000">
        <ele>81.30</ele>
        <time>2013-04-14T11:11:27Z</time>
      </trkpt>
      <trkpt lat="41.470753000" lon="2.149569000">
        <ele>83.10</ele>
        <time>2013-04-14T11:11:32Z</time>
      </trkpt>
      <trkpt lat="41.470574000" lon="2.149662000">
        <ele>85.30</ele>
        <time>2013-04-14T11:11:39Z</time>
      </trkpt>
      <trkpt lat="41.470394000" lon="2.149639000">
        <ele>87.10</ele>
        <time>2013-04-14T11:11:46Z</time>
      </trkpt>
      <trkpt lat="41.470215000" lon="2.149587000">
        <ele>89.00</ele>
        <time>2013-04-14T11:11:52Z</time>
      </trkpt>
      <trkpt lat="41.470055000" lon="2.149685000">
        <ele>89.80</ele>
        <time>2013-04-14T11:11:59Z</time>
      </trkpt>
      <trkpt lat="41.469886000" lon="2.149826000">
        <ele>90.60</ele>
        <time>2013-04-14T11:12:07Z</time>
      </trkpt>
      <trkpt lat="41.469736000" lon="2.149979000">
        <ele>91.20</ele>
        <time>2013-04-14T11:12:16Z</time>
      </trkpt>
      <trkpt lat="41.469571000" lon="2.150122000">
        <ele>92.30</ele>
        <time>2013-04-14T11:12:25Z</time>
      </trkpt>
      <trkpt lat="41.469393000" lon="2.150178000">
        <ele>93.20</ele>
        <time>2013-04-14T11:12:33Z</time>
      </trkpt>
      <trkpt lat="41.469191000" lon="2.150192000">
        <ele>94.50</ele>
        <time>2013-04-14T11:12:42Z</time>
      </trkpt>
      <trkpt lat="41.469002000" lon="2.150231000">
        <ele>95.40</ele>
        <time>2013-04-14T11:12:50Z</time>
      </trkpt>
      <trkpt lat="41.468835000" lon="2.150320000">
        <ele>96.40</ele>
        <time>2013-04-14T11:12:58Z</time>
      </trkpt>
      <trkpt lat="41.468655000" lon="2.150417000">
        <ele>97.20</ele>
        <time>2013-04-14T11:13:07Z</time>
      </trkpt>
      <trkpt lat="41.468474000" lon="2.150500000">
        <ele>98.10</ele>
        <time>2013-04-14T11:13:16Z</time>
      </trkpt>
      <trkpt lat="41.468278000" lon="2.150517000">
        <ele>99.20</ele>
        <time>2013-04-14T11:13:25Z</time>
      </trkpt>
      <trkpt lat="41.468077000" lon="2.150516000">
        <ele>99.60</ele>
        <time>2013-04-14T11:13:34Z</time>
      </trkpt>
      <trkpt lat="41.467897000" lon="2.150520000">
        <ele>100.60</ele>
        <time>2013-04-14T11:13:42Z</time>
      </trkpt>
      <trkpt lat="41.467706000" lon="2.150478000">
        <ele>101.50</ele>
        <time>2013-04-14T11:13:50Z</time>
      </trkpt>
      <trkpt lat="41.467511000" lon="2.150447000">
        <ele>102.50</ele>
        <time>2013-04-14T11:13:58Z</time>
      </trkpt>
      <trkpt lat="41.467319000" lon="2.150451000">
        <ele>102.30</ele>
        <time>2013-04-14T11:14:06Z</time>
      </trkpt>
      <trkpt lat="41.467128000" lon="2.150471000">
        <ele>103.30</ele>
        <time>2013-04-14T11:14:14Z</time>
      </trkpt>
      <trkpt lat="41.466932000" lon="2.150478000">
        <ele>103.60</ele>
        <time>2013-04-14T11:14:21Z</time>
      </trkpt>
      <trkpt lat="41.466723000" lon="2.150546000">
        <ele>103.10</ele>
        <time>2013-04-14T11:14:28Z</time>
      </trkpt>
      <trkpt lat="41.466541000" lon="2.150606000">
        <ele>103.30</ele>
        <time>2013-04-14T11:14:34Z</time>
      </trkpt>
      <trkpt lat="41.466342000" lon="2.150669000">
        <ele>103.50</ele>
        <time>2013-04-14T11:14:41Z</time>
      </trkpt>
      <trkpt lat="41.466154000" lon="2.150747000">
        <ele>102.30</ele>
        <time>2013-04-14T11:14:46Z</time>
      </trkpt>
      <trkpt lat="41.466006000" lon="2.150927000">
        <ele>101.40</ele>
        <time>2013-04-14T11:14:51Z</time>
      </trkpt>
      <trkpt lat="41.466086000" lon="2.151164000">
        <ele>102.20</ele>
        <time>2013-04-14T11:14:57Z</time>
      </trkpt>
      <trkpt lat="41.466219000" lon="2.151349000">
        <ele>103.30</ele>
        <time>2013-04-14T11:15:03Z</time>
      </trkpt>
      <trkpt lat="41.466354000" lon="2.151585000">
        <ele>101.90</ele>
        <time>2013-04-14T11:15:09Z</time>
      </trkpt>
      <trkpt lat="41.466399000" lon="2.151853000">
        <ele>102.40</ele>
        <time>2013-04-14T11:15:14Z</time>
      </trkpt>
      <trkpt lat="41.466557000" lon="2.152000000">
        <ele>104.20</ele>
        <time>2013-04-14T11:15:20Z</time>
      </trkpt>
      <trkpt lat="41.466673000" lon="2.152167000">
        <ele>105.30</ele>
        <time>2013-04-14T11:15:27Z</time>
      </trkpt>
      <trkpt lat="41.466567000" lon="2.152315000">
        <ele>106.70</ele>
        <time>2013-04-14T11:15:34Z</time>
      </trkpt>
      <trkpt lat="41.466387000" lon="2.152338000">
        <ele>107.80</ele>
        <time>2013-04-14T11:15:41Z</time>
      </trkpt>
      <trkpt lat="41.466193000" lon="2.152347000">
        <ele>109.10</ele>
        <time>2013-04-14T11:15:49Z</time>
      </trkpt>
      <trkpt lat="41.466028000" lon="2.152447000">
        <ele>110.30</ele>
        <time>2013-04-14T11:15:59Z</time>
      </trkpt>
      <trkpt lat="41.465889000" lon="2.152624000">
        <ele>111.50</ele>
        <time>2013-04-14T11:16:08Z</time>
      </trkpt>
      <trkpt lat="41.465842000" lon="2.152862000">
        <ele>112.60</ele>
        <time>2013-04-14T11:16:17Z</time>
      </trkpt>
      <trkpt lat="41.465823000" lon="2.153131000">
        <ele>113.80</ele>
        <time>2013-04-14T11:16:27Z</time>
      </trkpt>
      <trkpt lat="41.465790000" lon="2.153384000">
        <ele>113.90</ele>
        <time>2013-04-14T11:16:36Z</time>
      </trkpt>
      <trkpt lat="41.465649000" lon="2.153433000">
        <ele>113.80</ele>
        <time>2013-04-14T11:16:43Z</time>
      </trkpt>
      <trkpt lat="41.465572000" lon="2.153178000">
        <ele>114.20</ele>
        <time>2013-04-14T11:16:52Z</time>
      </trkpt>
      <trkpt lat="41.465466000" lon="2.152964000">
        <ele>114.20</ele>
        <time>2013-04-14T11:16:59Z</time>
      </trkpt>
      <trkpt lat="41.465339000" lon="2.152781000">
        <ele>114.20</ele>
        <time>2013-04-14T11:17:05Z</time>
      </trkpt>
      <trkpt lat="41.465170000" lon="2.152609000">
        <ele>114.00</ele>
        <time>2013-04-14T11:17:11Z</time>
      </trkpt>
      <trkpt lat="41.465042000" lon="2.152429000">
        <ele>112.90</ele>
        <time>2013-04-14T11:17:18Z</time>
      </trkpt>
      <trkpt lat="41.464979000" lon="2.152181000">
        <ele>113.70</ele>
        <time>2013-04-14T11:17:25Z</time>
      </trkpt>
      <trkpt lat="41.464850000" lon="2.152009000">
        <ele>114.10</ele>
        <time>2013-04-14T11:17:32Z</time>
      </trkpt>
      <trkpt lat="41.464643000" lon="2.152001000">
        <ele>114.30</ele>
        <time>2013-04-14T11:17:39Z</time>
      </trkpt>
      <trkpt lat="41.464440000" lon="2.152047000">
        <ele>114.10</ele>
        <time>2013-04-14T11:17:46Z</time>
      </trkpt>
      <trkpt lat="41.464243000" lon="2.152101000">
        <ele>114.60</ele>
        <time>2013-04-14T11:17:54Z</time>
      </trkpt>
      <trkpt lat="41.464047000" lon="2.152075000">
        <ele>114.70</ele>
        <time>2013-04-14T11:18:01Z</time>
      </trkpt>
      <trkpt lat="41.463874000" lon="2.152145000">
        <ele>114.90</ele>
        <time>2013-04-14T11:18:08Z</time>
      </trkpt>
      <trkpt lat="41.463723000" lon="2.152308000">
        <ele>114.90</ele>
        <time>2013-04-14T11:18:15Z</time>
      </trkpt>
      <trkpt lat="41.463554000" lon="2.152377000">
        <ele>115.30</ele>
        <time>2013-04-14T11:18:22Z</time>
      </trkpt>
      <trkpt lat="41.463387000" lon="2.152283000">
        <ele>116.10</ele>
        <time>2013-04-14T11:18:29Z</time>
      </trkpt>
      <trkpt lat="41.463190000" lon="2.152182000">
        <ele>117.30</ele>
        <time>2013-04-14T11:18:37Z</time>
      </trkpt>
      <trkpt lat="41.462973000" lon="2.152194000">
        <ele>117.60</ele>
        <time>2013-04-14T11:18:45Z</time>
      </trkpt>
      <trkpt lat="41.462800000" lon="2.152302000">
        <ele>118.00</ele>
        <time>2013-04-14T11:18:53Z</time>
      </trkpt>
      <trkpt lat="41.462659000" lon="2.152454000">
        <ele>118.70</ele>
        <time>2013-04-14T11:19:01Z</time>
      </trkpt>
      <trkpt lat="41.462547000" lon="2.152659000">
        <ele>119.90</ele>
        <time>2013-04-14T11:19:09Z</time>
      </trkpt>
      <trkpt lat="41.462420000" lon="2.152808000">
        <ele>121.30</ele>
        <time>2013-04-14T11:19:17Z</time>
      </trkpt>
      <trkpt lat="41.462271000" lon="2.152673000">
        <ele>122.20</ele>
        <time>2013-04-14T11:19:25Z</time>
      </trkpt>
      <trkpt lat="41.462103000" lon="2.152561000">
        <ele>122.60</ele>
        <time>2013-04-14T11:19:33Z</time>
      </trkpt>
      <trkpt lat="41.461915000" lon="2.152537000">
        <ele>124.00</ele>
        <time>2013-04-14T11:19:41Z</time>
      </trkpt>
      <trkpt lat="41.461770000" lon="2.152695000">
        <ele>125.40</ele>
        <time>2013-04-14T11:19:49Z</time>
      </trkpt>
      <trkpt lat="41.461604000" lon="2.152821000">
        <ele>127.00</ele>
        <time>2013-04-14T11:19:58Z</time>
      </trkpt>
      <trkpt lat="41.461415000" lon="2.152768000">
        <ele>127.40</ele>
        <time>2013-04-14T11:20:07Z</time>
      </trkpt>
      <trkpt lat="41.461284000" lon="2.152553000">
        <ele>128.00</ele>
        <time>2013-04-14T11:20:16Z</time>
      </trkpt>
      <trkpt lat="41.461119000" lon="2.152444000">
        <ele>128.50</ele>
        <time>2013-04-14T11:20:24Z</time>
      </trkpt>
      <trkpt lat="41.460926000" lon="2.152505000">
        <ele>129.10</ele>
        <time>2013-04-14T11:20:33Z</time>
      </trkpt>
      <trkpt lat="41.460782000" lon="2.152369000">
        <ele>130.20</ele>
        <time>2013-04-14T11:20:42Z</time>
      </trkpt>
      <trkpt lat="41.460655000" lon="2.152176000">
        <ele>131.70</ele>
        <time>2013-04-14T11:20:52Z</time>
      </trkpt>
      <trkpt lat="41.460492000" lon="2.152044000">
        <ele>132.30</ele>
        <time>2013-04-14T11:21:01Z</time>
      </trkpt>
      <trkpt lat="41.460307000" lon="2.152000000">
        <ele>133.80</ele>
        <time>2013-04-14T11:21:11Z</time>
      </trkpt>
      <trkpt lat="41.460102000" lon="2.151959000">
        <ele>135.00</ele>
        <time>2013-04-14T11:21:22Z</time>
      </trkpt>
      <trkpt lat="41.459945000" lon="2.152092000">
        <ele>137.50</ele>
        <time>2013-04-14T11:21:32Z</time>
      </trkpt>
      <trkpt lat="41.459883000" lon="2.152311000">
        <ele>140.90</ele>
        <time>2013-04-14T11:21:57Z</time>
      </trkpt>
      <trkpt lat="41.459880000" lon="2.152551000">
        <ele>143.50</ele>
        <time>2013-04-14T11:22:09Z</time>
      </trkpt>
      <trkpt lat="41.459881000" lon="2.152812000">
        <ele>145.40</ele>
        <time>2013-04-14T11:22:20Z</time>
      </trkpt>
      <trkpt lat="41.459738000" lon="2.152895000">
        <ele>146.50</ele>
        <time>2013-04-14T11:22:30Z</time>
      </trkpt>
      <trkpt lat="41.459603000" lon="2.152725000">
        <ele>146.60</ele>
        <time>2013-04-14T11:22:38Z</time>
      </trkpt>
      <trkpt lat="41.459394000" lon="2.152672000">
        <ele>147.40</ele>
        <time>2013-04-14T11:22:46Z</time>
      </trkpt>
      <trkpt lat="41.459193000" lon="2.152678000">
        <ele>149.40</ele>
        <time>2013-04-14T11:22:55Z</time>
      </trkpt>
      <trkpt lat="41.459076000" lon="2.152872000">
        <ele>150.20</ele>
        <time>2013-04-14T11:23:05Z</time>
      </trkpt>
      <trkpt lat="41.459038000" lon="2.153105000">
        <ele>151.80</ele>
        <time>2013-04-14T11:23:16Z</time>
      </trkpt>
      <trkpt lat="41.458950000" lon="2.153247000">
        <ele>152.40</ele>
        <time>2013-04-14T11:24:58Z</time>
      </trkpt>
      <trkpt lat="41.458810000" lon="2.153073000">
        <ele>153.80</ele>
        <time>2013-04-14T11:25:09Z</time>
      </trkpt>
      <trkpt lat="41.458670000" lon="2.152882000">
        <ele>155.40</ele>
        <time>2013-04-14T11:25:20Z</time>
      </trkpt>
      <trkpt lat="41.458516000" lon="2.152794000">
        <ele>156.20</ele>
        <time>2013-04-14T11:25:30Z</time>
      </trkpt>
      <trkpt lat="41.458324000" lon="2.152785000">
        <ele>157.20</ele>
        <time>2013-04-14T11:25:41Z</time>
      </trkpt>
      <trkpt lat="41.458197000" lon="2.152970000">
        <ele>158.60</ele>
        <time>2013-04-14T11:25:51Z</time>
      </trkpt>
      <trkpt lat="41.458124000" lon="2.153234000">
        <ele>159.40</ele>
        <time>2013-04-14T11:26:01Z</time>
      </trkpt>
      <trkpt lat="41.458038000" lon="2.153488000">
        <ele>160.80</ele>
        <time>2013-04-14T11:26:11Z</time>
      </trkpt>
      <trkpt lat="41.457927000" lon="2.153719000">
        <ele>162.70</ele>
        <time>2013-04-14T11:26:21Z</time>
      </trkpt>
      <trkpt lat="41.457832000" lon="2.153931000">
        <ele>164.10</ele>
        <time>2013-04-14T11:26:31Z</time>
      </trkpt>
      <trkpt lat="41.457701000" lon="2.154083000">
        <ele>165.80</ele>
        <time>2013-04-14T11:26:40Z</time>
      </trkpt>
      <trkpt lat="41.457536000" lon="2.153939000">
        <ele>167.10</ele>
        <time>2013-04-14T11:26:50Z</time>
      </trkpt>
      <trkpt lat="41.457415000" lon="2.153749000">
        <ele>168.30</ele>
        <time>2013-04-14T11:26:59Z</time>
      </trkpt>
      <trkpt lat="41.457289000" lon="2.153572000">
        <ele>170.00</ele>
        <time>2013-04-14T11:27:09Z</time>
      </trkpt>
      <trkpt lat="41.457126000" lon="2.153409000">
        <ele>171.50</ele>
        <time>2013-04-14T11:27:19Z</time>
      </trkpt>
      <trkpt lat="41.456996000" lon="2.153240000">
        <ele>172.70</ele>
        <time>2013-04-14T11:27:28Z</time>
      </trkpt>
      <trkpt lat="41.456901000" lon="2.153027000">
        <ele>173.70</ele>
        <time>2013-04-14T11:27:36Z</time>
      </trkpt>
      <trkpt lat="41.456804000" lon="2.152798000">
        <ele>174.80</ele>
        <time>2013-04-14T11:27:47Z</time>
      </trkpt>
      <trkpt lat="41.456626000" lon="2.152739000">
        <ele>176.60</ele>
        <time>2013-04-14T11:28:05Z</time>
      </trkpt>
      <trkpt lat="41.456489000" lon="2.152895000">
        <ele>178.10</ele>
        <time>2013-04-14T11:28:16Z</time>
      </trkpt>
      <trkpt lat="41.456373000" lon="2.153101000">
        <ele>180.00</ele>
        <time>2013-04-14T11:28:27Z</time>
      </trkpt>
      <trkpt lat="41.456260000" lon="2.153317000">
        <ele>181.60</ele>
        <time>2013-04-14T11:28:37Z</time>
      </trkpt>
      <trkpt lat="41.456169000" lon="2.153546000">
        <ele>183.10</ele>
        <time>2013-04-14T11:28:48Z</time>
      </trkpt>
      <trkpt lat="41.456020000" lon="2.153701000">
        <ele>185.20</ele>
        <time>2013-04-14T11:28:59Z</time>
      </trkpt>
      <trkpt lat="41.455819000" lon="2.153752000">
        <ele>186.30</ele>
        <time>2013-04-14T11:29:09Z</time>
      </trkpt>
      <trkpt lat="41.455633000" lon="2.153757000">
        <ele>188.20</ele>
        <time>2013-04-14T11:29:19Z</time>
      </trkpt>
      <trkpt lat="41.455462000" lon="2.153647000">
        <ele>189.20</ele>
        <time>2013-04-14T11:29:29Z</time>
      </trkpt>
      <trkpt lat="41.455381000" lon="2.153414000">
        <ele>190.10</ele>
        <time>2013-04-14T11:29:38Z</time>
      </trkpt>
      <trkpt lat="41.455287000" lon="2.153174000">
        <ele>190.80</ele>
        <time>2013-04-14T11:29:48Z</time>
      </trkpt>
      <trkpt lat="41.455137000" lon="2.153066000">
        <ele>191.20</ele>
        <time>2013-04-14T11:29:58Z</time>
      </trkpt>
      <trkpt lat="41.454986000" lon="2.153187000">
        <ele>192.70</ele>
        <time>2013-04-14T11:30:07Z</time>
      </trkpt>
      <trkpt lat="41.454881000" lon="2.153390000">
        <ele>193.30</ele>
        <time>2013-04-14T11:30:16Z</time>
      </trkpt>
      <trkpt lat="41.454759000" lon="2.153588000">
        <ele>194.40</ele>
        <time>2013-04-14T11:30:25Z</time>
      </trkpt>
      <trkpt lat="41.454646000" lon="2.153775000">
        <ele>197.00</ele>
        <time>2013-04-14T11:30:35Z</time>
      </trkpt>
      <trkpt lat="41.454537000" lon="2.153973000">
        <ele>198.60</ele>
        <time>2013-04-14T11:30:43Z</time>
      </trkpt>
      <trkpt lat="41.454452000" lon="2.154219000">
        <ele>199.90</ele>
        <time>2013-04-14T11:30:52Z</time>
      </trkpt>
      <trkpt lat="41.454382000" lon="2.154432000">
        <ele>200.80</ele>
        <time>2013-04-14T11:31:00Z</time>
      </trkpt>
      <trkpt lat="41.454287000" lon="2.154659000">
        <ele>202.70</ele>
        <time>2013-04-14T11:31:09Z</time>
      </trkpt>
      <trkpt lat="41.454133000" lon="2.154733000">
        <ele>205.10</ele>
        <time>2013-04-14T11:32:07Z</time>
      </trkpt>
      <trkpt lat="41.453920000" lon="2.154741000">
        <ele>205.60</ele>
        <time>2013-04-14T11:32:13Z</time>
      </trkpt>
      <trkpt lat="41.453743000" lon="2.154803000">
        <ele>207.70</ele>
        <time>2013-04-14T11:32:20Z</time>
      </trkpt>
      <trkpt lat="41.453574000" lon="2.154926000">
        <ele>207.80</ele>
        <time>2013-04-14T11:32:30Z</time>
      </trkpt>
      <trkpt lat="41.453417000" lon="2.155047000">
        <ele>210.10</ele>
        <time>2013-04-14T11:32:39Z</time>
      </trkpt>
      <trkpt lat="41.453312000" lon="2.155271000">
        <ele>211.00</ele>
        <time>2013-04-14T11:32:47Z</time>
      </trkpt>
      <trkpt lat="41.453246000" lon="2.155533000">
        <ele>213.00</ele>
        <time>2013-04-14T11:32:55Z</time>
      </trkpt>
      <trkpt lat="41.453186000" lon="2.155772000">
        <ele>214.10</ele>
        <time>2013-04-14T11:33:02Z</time>
      </trkpt>
      <trkpt lat="41.453084000" lon="2.155971000">
        <ele>214.90</ele>
        <time>2013-04-14T11:33:09Z</time>
      </trkpt>
      <trkpt lat="41.452917000" lon="2.156096000">
        <ele>215.90</ele>
        <time>2013-04-14T11:33:16Z</time>
      </trkpt>
      <trkpt lat="41.452731000" lon="2.156166000">
        <ele>216.50</ele>
        <time>2013-04-14T11:33:23Z</time>
      </trkpt>
      <trkpt lat="41.452553000" lon="2.156214000">
        <ele>218.70</ele>
        <time>2013-04-14T11:33:30Z</time>
      </trkpt>
      <trkpt lat="41.452376000" lon="2.156289000">
        <ele>219.40</ele>
        <time>2013-04-14T11:33:37Z</time>
      </trkpt>
      <trkpt lat="41.452180000" lon="2.156222000">
        <ele>220.70</ele>
        <time>2013-04-14T11:33:44Z</time>
      </trkpt>
      <trkpt lat="41.451993000" lon="2.156222000">
        <ele>222.30</ele>
        <time>2013-04-14T11:33:50Z</time>
      </trkpt>
      <trkpt lat="41.451796000" lon="2.156257000">
        <ele>223.80</ele>
        <time>2013-04-14T11:33:56Z</time>
      </trkpt>
      <trkpt lat="41.451634000" lon="2.156431000">
        <ele>224.60</ele>
        <time>2013-04-14T11:34:02Z</time>
      </trkpt>
      <trkpt lat="41.451474000" lon="2.156602000">
        <ele>225.80</ele>
        <time>2013-04-14T11:34:08Z</time>
      </trkpt>
      <trkpt lat="41.451307000" lon="2.156673000">
        <ele>227.20</ele>
        <time>2013-04-14T11:34:13Z</time>
      </trkpt>
      <trkpt lat="41.451117000" lon="2.156716000">
        <ele>228.80</ele>
        <time>2013-04-14T11:34:19Z</time>
      </trkpt>
      <trkpt lat="41.450942000" lon="2.156808000">
        <ele>230.40</ele>
        <time>2013-04-14T11:34:25Z</time>
      </trkpt>
      <trkpt lat="41.450765000" lon="2.156912000">
        <ele>231.20</ele>
        <time>2013-04-14T11:34:31Z</time>
      </trkpt>
      <trkpt lat="41.450584000" lon="2.157029000">
        <ele>232.20</ele>
        <time>2013-04-14T11:34:37Z</time>
      </trkpt>
      <trkpt lat="41.450457000" lon="2.157258000">
        <ele>233.50</ele>
        <time>2013-04-14T11:34:43Z</time>
      </trkpt>
      <trkpt lat="41.450444000" lon="2.157527000">
        <ele>234.30</ele>
        <time>2013-04-14T11:34:48Z</time>
      </trkpt>
      <trkpt lat="41.450480000" lon="2.157766000">
        <ele>235.40</ele>
        <time>2013-04-14T11:34:53Z</time>
      </trkpt>
      <trkpt lat="41.450577000" lon="2.158017000">
        <ele>236.40</ele>
        <time>2013-04-14T11:34:59Z</time>
      </trkpt>
      <trkpt lat="41.450667000" lon="2.158260000">
        <ele>237.60</ele>
        <time>2013-04-14T11:35:05Z</time>
      </trkpt>
      <trkpt lat="41.450724000" lon="2.158534000">
        <ele>238.50</ele>
        <time>2013-04-14T11:35:11Z</time>
      </trkpt>
      <trkpt lat="41.450716000" lon="2.158814000">
        <ele>238.60</ele>
        <time>2013-04-14T11:35:17Z</time>
      </trkpt>
      <trkpt lat="41.450591000" lon="2.159039000">
        <ele>238.70</ele>
        <time>2013-04-14T11:35:23Z</time>
      </trkpt>
      <trkpt lat="41.450417000" lon="2.159104000">
        <ele>238.30</ele>
        <time>2013-04-14T11:35:28Z</time>
      </trkpt>
      <trkpt lat="41.450306000" lon="2.159211000">
        <ele>239.40</ele>
        <time>2013-04-14T11:35:41Z</time>
      </trkpt>
      <trkpt lat="41.450227000" lon="2.159444000">
        <ele>234.70</ele>
        <time>2013-04-14T11:35:49Z</time>
      </trkpt>
      <trkpt lat="41.450055000" lon="2.159536000">
        <ele>230.80</ele>
        <time>2013-04-14T11:35:53Z</time>
      </trkpt>
      <trkpt lat="41.449850000" lon="2.159659000">
        <ele>229.80</ele>
        <time>2013-04-14T11:35:57Z</time>
      </trkpt>
      <trkpt lat="41.449628000" lon="2.159761000">
        <ele>228.40</ele>
        <time>2013-04-14T11:36:01Z</time>
      </trkpt>
      <trkpt lat="41.449416000" lon="2.159819000">
        <ele>223.30</ele>
        <time>2013-04-14T11:36:04Z</time>
      </trkpt>
      <trkpt lat="41.449138000" lon="2.159825000">
        <ele>218.90</ele>
        <time>2013-04-14T11:36:07Z</time>
      </trkpt>
      <trkpt lat="41.448894000" lon="2.159863000">
        <ele>217.80</ele>
        <time>2013-04-14T11:36:10Z</time>
      </trkpt>
      <trkpt lat="41.448773000" lon="2.160010000">
        <ele>217.30</ele>
        <time>2013-04-14T11:36:15Z</time>
      </trkpt>
      <trkpt lat="41.448685000" lon="2.159882000">
        <ele>216.60</ele>
        <time>2013-04-14T11:37:33Z</time>
      </trkpt>
      <trkpt lat="41.448497000" lon="2.159843000">
        <ele>215.00</ele>
        <time>2013-04-14T11:37:38Z</time>
      </trkpt>
      <trkpt lat="41.448266000" lon="2.159778000">
        <ele>212.60</ele>
        <time>2013-04-14T11:37:43Z</time>
      </trkpt>
      <trkpt lat="41.448031000" lon="2.159721000">
        <ele>210.10</ele>
        <time>2013-04-14T11:37:47Z</time>
      </trkpt>
      <trkpt lat="41.447820000" lon="2.159649000">
        <ele>208.80</ele>
        <time>2013-04-14T11:37:50Z</time>
      </trkpt>
      <trkpt lat="41.447621000" lon="2.159527000">
        <ele>208.10</ele>
        <time>2013-04-14T11:37:53Z</time>
      </trkpt>
      <trkpt lat="41.447460000" lon="2.159379000">
        <ele>209.30</ele>
        <time>2013-04-14T11:37:57Z</time>
      </trkpt>
      <trkpt lat="41.447248000" lon="2.159253000">
        <ele>204.00</ele>
        <time>2013-04-14T11:38:02Z</time>
      </trkpt>
      <trkpt lat="41.447055000" lon="2.159205000">
        <ele>197.60</ele>
        <time>2013-04-14T11:38:05Z</time>
      </trkpt>
      <trkpt lat="41.446870000" lon="2.159172000">
        <ele>192.80</ele>
        <time>2013-04-14T11:38:08Z</time>
      </trkpt>
      <trkpt lat="41.446698000" lon="2.159226000">
        <ele>188.70</ele>
        <time>2013-04-14T11:38:11Z</time>
      </trkpt>
      <trkpt lat="41.446470000" lon="2.159326000">
        <ele>184.70</ele>
        <time>2013-04-14T11:38:14Z</time>
      </trkpt>
      <trkpt lat="41.446267000" lon="2.159331000">
        <ele>185.80</ele>
        <time>2013-04-14T11:38:17Z</time>
      </trkpt>
      <trkpt lat="41.446062000" lon="2.159346000">
        <ele>186.50</ele>
        <time>2013-04-14T11:40:02Z</time>
      </trkpt>
      <trkpt lat="41.445883000" lon="2.159400000">
        <ele>184.00</ele>
        <time>2013-04-14T11:40:08Z</time>
      </trkpt>
      <trkpt lat="41.445701000" lon="2.159444000">
        <ele>181.10</ele>
        <time>2013-04-14T11:40:14Z</time>
      </trkpt>
      <trkpt lat="41.445525000" lon="2.159442000">
        <ele>177.90</ele>
        <time>2013-04-14T11:40:21Z</time>
      </trkpt>
      <trkpt lat="41.445362000" lon="2.159462000">
        <ele>173.10</ele>
        <time>2013-04-14T11:40:47Z</time>
      </trkpt>
      <trkpt lat="41.445196000" lon="2.159449000">
        <ele>166.70</ele>
        <time>2013-04-14T11:41:11Z</time>
      </trkpt>
      <trkpt lat="41.445012000" lon="2.159446000">
        <ele>161.00</ele>
        <time>2013-04-14T11:41:30Z</time>
      </trkpt>
      <trkpt lat="41.444848000" lon="2.159509000">
        <ele>156.10</ele>
        <time>2013-04-14T11:41:57Z</time>
      </trkpt>
      <trkpt lat="41.444682000" lon="2.159432000">
        <ele>150.80</ele>
        <time>2013-04-14T11:42:06Z</time>
      </trkpt>
      <trkpt lat="41.444577000" lon="2.159290000">
        <ele>145.80</ele>
        <time>2013-04-14T11:42:54Z</time>
      </trkpt>
      <trkpt lat="41.444402000" lon="2.159275000">
        <ele>140.40</ele>
        <time>2013-04-14T11:43:26Z</time>
      </trkpt>
      <trkpt lat="41.444238000" lon="2.159170000">
        <ele>134.30</ele>
        <time>2013-04-14T11:43:36Z</time>
      </trkpt>
      <trkpt lat="41.444063000" lon="2.159187000">
        <ele>129.10</ele>
        <time>2013-04-14T11:44:26Z</time>
      </trkpt>
      <trkpt lat="41.444057000" lon="2.158992000">
        <ele>125.20</ele>
        <time>2013-04-14T11:45:35Z</time>
      </trkpt>
      <trkpt lat="41.443916000" lon="2.158967000">
        <ele>123.60</ele>
        <time>2013-04-14T11:45:47Z</time>
      </trkpt>
      <trkpt lat="41.443753000" lon="2.159038000">
        <ele>124.20</ele>
        <time>2013-04-14T11:45:55Z</time>
      </trkpt>
      <trkpt lat="41.443560000" lon="2.159151000">
        <ele>123.50</ele>
        <time>2013-04-14T11:46:01Z</time>
      </trkpt>
      <trkpt lat="41.443380000" lon="2.159116000">
        <ele>123.90</ele>
        <time>2013-04-14T11:46:08Z</time>
      </trkpt>
      <trkpt lat="41.443239000" lon="2.158968000">
        <ele>126.80</ele>
        <time>2013-04-14T11:46:22Z</time>
      </trkpt>
      <trkpt lat="41.443065000" lon="2.158903000">
        <ele>129.10</ele>
        <time>2013-04-14T11:46:32Z</time>
      </trkpt>
      <trkpt lat="41.442880000" lon="2.158928000">
        <ele>131.90</ele>
        <time>2013-04-14T11:46:41Z</time>
      </trkpt>
      <trkpt lat="41.442714000" lon="2.159004000">
        <ele>132.40</ele>
        <time>2013-04-14T11:46:51Z</time>
      </trkpt>
      <trkpt lat="41.442531000" lon="2.159046000">
        <ele>130.60</ele>
        <time>2013-04-14T11:47:04Z</time>
      </trkpt>
      <trkpt lat="41.442338000" lon="2.159219000">
        <ele>127.60</ele>
        <time>2013-04-14T11:47:09Z</time>
      </trkpt>
      <trkpt lat="41.442149000" lon="2.159310000">
        <ele>127.50</ele>
        <time>2013-04-14T11:47:13Z</time>
      </trkpt>
      <trkpt lat="41.441946000" lon="2.159373000">
        <ele>127.90</ele>
        <time>2013-04-14T11:47:18Z</time>
      </trkpt>
      <trkpt lat="41.441771000" lon="2.159301000">
        <ele>127.50</ele>
        <time>2013-04-14T11:47:22Z</time>
      </trkpt>
      <trkpt lat="41.441610000" lon="2.159210000">
        <ele>129.00</ele>
        <time>2013-04-14T11:47:29Z</time>
      </trkpt>
      <trkpt lat="41.441437000" lon="2.159104000">
        <ele>127.80</ele>
        <time>2013-04-14T11:47:37Z</time>
      </trkpt>
      <trkpt lat="41.441295000" lon="2.159165000">
        <ele>124.30</ele>
        <time>2013-04-14T11:47:45Z</time>
      </trkpt>
      <trkpt lat="41.441175000" lon="2.159354000">
        <ele>122.20</ele>
        <time>2013-04-14T11:47:57Z</time>
      </trkpt>
      <trkpt lat="41.441071000" lon="2.159607000">
        <ele>120.60</ele>
        <time>2013-04-14T11:48:04Z</time>
      </trkpt>
      <trkpt lat="41.440975000" lon="2.159808000">
        <ele>119.30</ele>
        <time>2013-04-14T11:48:08Z</time>
      </trkpt>
      <trkpt lat="41.440870000" lon="2.160024000">
        <ele>118.60</ele>
        <time>2013-04-14T11:48:13Z</time>
      </trkpt>
      <trkpt lat="41.440744000" lon="2.160266000">
        <ele>116.80</ele>
        <time>2013-04-14T11:48:18Z</time>
      </trkpt>
      <trkpt lat="41.440631000" lon="2.160497000">
        <ele>115.50</ele>
        <time>2013-04-14T11:48:23Z</time>
      </trkpt>
      <trkpt lat="41.440591000" lon="2.160612000">
        <ele>115.60</ele>
        <time>2013-04-14T11:48:35Z</time>
      </trkpt>
    </trkseg>
  </trk>
</gpx>
